Observation data for Fort Lancaster on 01/19/2019      Previous  Date  Next       Current Mesonet Observations  Soil Data  Daily Summary Page  Observations in Plain Language
KLA1 190600Z 31015G20KT 15/M04 A3002 RMK A01 T01491043  RH  026%=      5-min Rain = 0
KLA1 190601Z 30014KT 15/M04 A3002 RMK A01 T01491041  RH  027%=      5-min Rain = 0
KLA1 190602Z 30013G19KT 15/M04 A3002 RMK A01 T01481041  RH  027%=      5-min Rain = 0
KLA1 190603Z 31014KT 15/M04 A3002 RMK A01 T01471042  RH  027%=      5-min Rain = 0
KLA1 190604Z 29017G22KT 15/M04 A3002 RMK A01 T01471043  RH  027%=      5-min Rain = 0
KLA1 190605Z 31017G23KT 15/M04 A3002 RMK A01 T01471042  RH  027%=      5-min Rain = 0
KLA1 190606Z 31013G18KT 15/M04 A3002 RMK A01 T01461043  RH  027%=      5-min Rain = 0
KLA1 190607Z 32013G18KT 15/M04 A3002 RMK A01 T01461042  RH  027%=      5-min Rain = 0
KLA1 190608Z 32016KT 15/M04 A3002 RMK A01 T01461043  RH  027%=      5-min Rain = 0
KLA1 190609Z 31013G19KT 15/M04 A3002 RMK A01 T01461044  RH  027%=      5-min Rain = 0
KLA1 190610Z 30011KT 15/M04 A3002 RMK A01 T01461041  RH  027%=      5-min Rain = 0
KLA1 190611Z 30017G25KT 14/M04 A3002 RMK A01 T01441040  RH  028%=      5-min Rain = 0
KLA1 190612Z 30013G19KT 14/M04 A3002 RMK A01 T01441044  RH  027%=      5-min Rain = 0
KLA1 190613Z 31013G21KT 14/M04 A3002 RMK A01 T01441040  RH  028%=      5-min Rain = 0
KLA1 190614Z 31016G21KT 14/M04 A3002 RMK A01 T01441041  RH  028%=      5-min Rain = 0
KLA1 190615Z 31019G24KT 14/M04 A3002 RMK A01 T01441042  RH  027%=      5-min Rain = 0
KLA1 190616Z 32013KT 14/M04 A3002 RMK A01 T01441042  RH  028%=      5-min Rain = 0
KLA1 190617Z 32012KT 14/M04 A3003 RMK A01 T01431040  RH  028%=      5-min Rain = 0
KLA1 190618Z 32012G17KT 14/M04 A3003 RMK A01 T01431041  RH  028%=      5-min Rain = 0
KLA1 190619Z 33012G17KT 14/M04 A3003 RMK A01 T01431040  RH  028%=      5-min Rain = 0
KLA1 190620Z 33013G18KT 14/M04 A3003 RMK A01 T01421037  RH  029%=      5-min Rain = 0
KLA1 190621Z 33016G21KT 14/M03 A3004 RMK A01 T01411033  RH  030%=      5-min Rain = 0
KLA1 190622Z 33013G20KT 14/M03 A3004 RMK A01 T01401030  RH  031%=      5-min Rain = 0
KLA1 190623Z 33015KT 14/M02 A3004 RMK A01 T01401023  RH  032%=      5-min Rain = 0
KLA1 190624Z 33016G25KT 14/M02 A3004 RMK A01 T01381015  RH  035%=      5-min Rain = 0
KLA1 190625Z 33015G24KT 14/M01 A3004 RMK A01 T01371009  RH  037%=      5-min Rain = 0
KLA1 190626Z 33017G25KT 14/M01 A3005 RMK A01 T01361006  RH  038%=      5-min Rain = 0
KLA1 190627Z 33012G18KT 14/M00 A3005 RMK A01 T01351002  RH  039%=      5-min Rain = 0
KLA1 190628Z 33015G23KT 13/00 A3005 RMK A01 T01330000  RH  040%=      5-min Rain = 0
KLA1 190629Z 33013G24KT 13/00 A3005 RMK A01 T01330004  RH  041%=      5-min Rain = 0
KLA1 190630Z 32017G22KT 13/01 A3005 RMK A01 T01310006  RH  042%=      5-min Rain = 0
KLA1 190631Z 32014KT 13/01 A3006 RMK A01 T01300008  RH  043%=      5-min Rain = 0
KLA1 190632Z 33013G18KT 13/01 A3006 RMK A01 T01290009  RH  044%=      5-min Rain = 0
KLA1 190633Z 34012G17KT 13/01 A3006 RMK A01 T01280009  RH  044%=      5-min Rain = 0
KLA1 190634Z 34010G16KT 13/01 A3006 RMK A01 T01270010  RH  045%=      5-min Rain = 0
KLA1 190635Z 32015G22KT 13/01 A3006 RMK A01 T01260010  RH  045%=      5-min Rain = 0
KLA1 190636Z 32014G20KT 13/01 A3006 RMK A01 T01250012  RH  046%=      5-min Rain = 0
KLA1 190637Z 33015G23KT 12/01 A3006 RMK A01 T01240012  RH  046%=      5-min Rain = 0
KLA1 190638Z 33011G16KT 12/01 A3006 RMK A01 T01240012  RH  047%=      5-min Rain = 0
KLA1 190639Z 33009KT 12/01 A3006 RMK A01 T01230013  RH  047%=      5-min Rain = 0
KLA1 190640Z 34010KT 12/01 A3006 RMK A01 T01220013  RH  047%=      5-min Rain = 0
KLA1 190641Z 34011G18KT 12/01 A3006 RMK A01 T01210013  RH  048%=      5-min Rain = 0
KLA1 190642Z 33013KT 12/01 A3006 RMK A01 T01200014  RH  048%=      5-min Rain = 0
KLA1 190643Z 34008KT 12/01 A3006 RMK A01 T01200014  RH  048%=      5-min Rain = 0
KLA1 190644Z 35008KT 12/02 A3006 RMK A01 T01180015  RH  049%=      5-min Rain = 0
KLA1 190645Z 33009KT 12/02 A3006 RMK A01 T01180015  RH  049%=      5-min Rain = 0
KLA1 190646Z 33012G17KT 12/02 A3007 RMK A01 T01170015  RH  050%=      5-min Rain = 0
KLA1 190647Z 33014G20KT 12/02 A3007 RMK A01 T01160016  RH  050%=      5-min Rain = 0
KLA1 190648Z 34014G21KT 12/02 A3007 RMK A01 T01160016  RH  050%=      5-min Rain = 0
KLA1 190649Z 33012KT 12/02 A3007 RMK A01 T01150016  RH  050%=      5-min Rain = 0
KLA1 190650Z 33010KT 12/02 A3007 RMK A01 T01150016  RH  051%=      5-min Rain = 0
KLA1 190651Z 34013KT 11/02 A3007 RMK A01 T01140017  RH  051%=      5-min Rain = 0
KLA1 190652Z 34012KT 11/02 A3007 RMK A01 T01140017  RH  051%=      5-min Rain = 0
KLA1 190653Z 34011KT 11/02 A3007 RMK A01 T01130017  RH  051%=      5-min Rain = 0
KLA1 190654Z 33009KT 11/02 A3007 RMK A01 T01130016  RH  051%=      5-min Rain = 0
KLA1 190655Z 34010G16KT 11/02 A3007 RMK A01 T01130016  RH  051%=      5-min Rain = 0
KLA1 190656Z 33014G19KT 11/02 A3007 RMK A01 T01120016  RH  051%=      5-min Rain = 0
KLA1 190657Z 32013KT 11/02 A3007 RMK A01 T01120016  RH  052%=      5-min Rain = 0
KLA1 190658Z 32010KT 11/02 A3007 RMK A01 T01120016  RH  052%=      5-min Rain = 0
KLA1 190659Z 34008KT 11/02 A3007 RMK A01 T01110016  RH  052%=      5-min Rain = 0
KLA1 190700Z 34010G18KT 11/02 A3007 RMK A01 T01110015  RH  052%=      5-min Rain = 0
KLA1 190701Z 33006KT 11/02 A3007 RMK A01 T01100016  RH  052%=      5-min Rain = 0
KLA1 190702Z 34008KT 11/02 A3007 RMK A01 T01090015  RH  052%=      5-min Rain = 0
KLA1 190703Z 34013G18KT 11/02 A3008 RMK A01 T01090015  RH  052%=      5-min Rain = 0
KLA1 190704Z 34008G13KT 11/01 A3008 RMK A01 T01090014  RH  052%=      5-min Rain = 0
KLA1 190705Z 34007KT 11/01 A3008 RMK A01 T01080014  RH  052%=      5-min Rain = 0
KLA1 190706Z 34006KT 11/02 A3008 RMK A01 T01080015  RH  053%=      5-min Rain = 0
KLA1 190707Z 32009G15KT 11/02 A3008 RMK A01 T01070015  RH  053%=      5-min Rain = 0
KLA1 190708Z 33008G18KT 11/01 A3008 RMK A01 T01070014  RH  053%=      5-min Rain = 0
KLA1 190709Z 34007KT 11/02 A3008 RMK A01 T01070015  RH  053%=      5-min Rain = 0
KLA1 190710Z 32007G15KT 11/02 A3008 RMK A01 T01060015  RH  053%=      5-min Rain = 0
KLA1 190711Z 32015G21KT 11/01 A3008 RMK A01 T01060014  RH  053%=      5-min Rain = 0
KLA1 190712Z 33012G19KT 11/02 A3008 RMK A01 T01050015  RH  053%=      5-min Rain = 0
KLA1 190713Z 35009KT 11/02 A3007 RMK A01 T01050015  RH  054%=      5-min Rain = 0
KLA1 190714Z 33010KT 11/02 A3008 RMK A01 T01050015  RH  054%=      5-min Rain = 0
KLA1 190715Z 32015G23KT 10/02 A3008 RMK A01 T01040015  RH  054%=      5-min Rain = 0
KLA1 190716Z 32015KT 10/02 A3008 RMK A01 T01040015  RH  054%=      5-min Rain = 0
KLA1 190717Z 33010KT 10/02 A3008 RMK A01 T01040015  RH  054%=      5-min Rain = 0
KLA1 190718Z 32010G17KT 10/02 A3008 RMK A01 T01030016  RH  055%=      5-min Rain = 0
KLA1 190719Z 33014G20KT 10/02 A3008 RMK A01 T01030015  RH  054%=      5-min Rain = 0
KLA1 190720Z 33009G15KT 10/02 A3008 RMK A01 T01030015  RH  054%=      5-min Rain = 0
KLA1 190721Z 35009KT 10/02 A3008 RMK A01 T01030015  RH  055%=      5-min Rain = 0
KLA1 190722Z 34007KT 10/02 A3008 RMK A01 T01030015  RH  055%=      5-min Rain = 0
KLA1 190723Z 32011KT 10/02 A3008 RMK A01 T01020015  RH  055%=      5-min Rain = 0
KLA1 190724Z 31011G17KT 10/02 A3009 RMK A01 T01020016  RH  055%=      5-min Rain = 0
KLA1 190725Z 31010G15KT 10/02 A3009 RMK A01 T01020016  RH  055%=      5-min Rain = 0
KLA1 190726Z 31008KT 10/02 A3009 RMK A01 T01010017  RH  056%=      5-min Rain = 0
KLA1 190727Z 31006G11KT 10/02 A3009 RMK A01 T01000017  RH  056%=      5-min Rain = 0
KLA1 190728Z 34004KT 10/02 A3009 RMK A01 T01000016  RH  056%=      5-min Rain = 0
KLA1 190729Z 32012G19KT 10/02 A3009 RMK A01 T01000016  RH  056%=      5-min Rain = 0
KLA1 190730Z 34013G19KT 10/02 A3009 RMK A01 T01000016  RH  056%=      5-min Rain = 0
KLA1 190731Z 32015G20KT 10/02 A3009 RMK A01 T00990016  RH  056%=      5-min Rain = 0
KLA1 190732Z 33013G20KT 10/02 A3009 RMK A01 T00990017  RH  056%=      5-min Rain = 0
KLA1 190733Z 33013G19KT 10/02 A3009 RMK A01 T00990017  RH  056%=      5-min Rain = 0
KLA1 190734Z 33011G17KT 10/02 A3009 RMK A01 T01000017  RH  056%=      5-min Rain = 0
KLA1 190735Z 33011KT 10/02 A3009 RMK A01 T01000017  RH  057%=      5-min Rain = 0
KLA1 190736Z 34009KT 10/02 A301 RMK A01 T01000018  RH  057%=      5-min Rain = 0
KLA1 190737Z 32016G25KT 10/02 A301 RMK A01 T00990018  RH  057%=      5-min Rain = 0
KLA1 190738Z 33017G22KT 10/02 A301 RMK A01 T00990017  RH  057%=      5-min Rain = 0
KLA1 190739Z 34011G17KT 10/02 A301 RMK A01 T00990017  RH  057%=      5-min Rain = 0
KLA1 190740Z 32016KT 10/02 A301 RMK A01 T00980018  RH  057%=      5-min Rain = 0
KLA1 190741Z 34013G19KT 10/02 A301 RMK A01 T00980018  RH  057%=      5-min Rain = 0
KLA1 190742Z 33016G22KT 10/02 A301 RMK A01 T00980018  RH  058%=      5-min Rain = 0
KLA1 190743Z 33013G19KT 10/02 A301 RMK A01 T00970018  RH  058%=      5-min Rain = 0
KLA1 190744Z 32014G19KT 10/02 A301 RMK A01 T00970018  RH  058%=      5-min Rain = 0
KLA1 190745Z 33012G20KT 10/02 A301 RMK A01 T00970018  RH  058%=      5-min Rain = 0
KLA1 190746Z 33012G18KT 10/02 A3011 RMK A01 T00970018  RH  058%=      5-min Rain = 0
KLA1 190747Z 33010KT 10/02 A3011 RMK A01 T00960018  RH  058%=      5-min Rain = 0
KLA1 190748Z 32010G19KT 10/02 A3011 RMK A01 T00960018  RH  058%=      5-min Rain = 0
KLA1 190749Z 34009KT 10/02 A3011 RMK A01 T00960018  RH  058%=      5-min Rain = 0
KLA1 190750Z 34007G12KT 10/02 A3011 RMK A01 T00960019  RH  059%=      5-min Rain = 0
KLA1 190751Z 33007KT 10/02 A3011 RMK A01 T00950018  RH  059%=      5-min Rain = 0
KLA1 190752Z 32008KT 10/02 A3011 RMK A01 T00950019  RH  059%=      5-min Rain = 0
KLA1 190753Z 34006KT 09/02 A3011 RMK A01 T00940019  RH  059%=      5-min Rain = 0
KLA1 190754Z 33006KT 09/02 A3011 RMK A01 T00940019  RH  059%=      5-min Rain = 0
KLA1 190755Z 31006KT 09/02 A3011 RMK A01 T00940019  RH  060%=      5-min Rain = 0
KLA1 190756Z 32009KT 09/02 A3011 RMK A01 T00930018  RH  060%=      5-min Rain = 0
KLA1 190757Z 32009KT 09/02 A3011 RMK A01 T00930018  RH  059%=      5-min Rain = 0
KLA1 190758Z 31008KT 09/02 A3011 RMK A01 T00930018  RH  059%=      5-min Rain = 0
KLA1 190759Z 33008KT 09/02 A3011 RMK A01 T00930017  RH  059%=      5-min Rain = 0
KLA1 190800Z 31011G16KT 09/02 A3011 RMK A01 T00920016  RH  059%=      5-min Rain = 0
KLA1 190801Z 32009KT 09/02 A3011 RMK A01 T00920016  RH  059%=      5-min Rain = 0
KLA1 190802Z 35008KT 09/02 A3011 RMK A01 T00920016  RH  059%=      5-min Rain = 0
KLA1 190803Z 33007KT 09/02 A3011 RMK A01 T00920015  RH  059%=      5-min Rain = 0
KLA1 190804Z 32006KT 09/02 A3011 RMK A01 T00920015  RH  059%=      5-min Rain = 0
KLA1 190805Z 32011G17KT 09/02 A3011 RMK A01 T00910015  RH  059%=      5-min Rain = 0
KLA1 190806Z 33009KT 09/01 A3011 RMK A01 T00910014  RH  059%=      5-min Rain = 0
KLA1 190807Z 32014G20KT 09/01 A3011 RMK A01 T00900012  RH  058%=      5-min Rain = 0
KLA1 190808Z 32018G25KT 09/01 A3011 RMK A01 T00900011  RH  057%=      5-min Rain = 0
KLA1 190809Z 31014KT 09/01 A3011 RMK A01 T00910010  RH  057%=      5-min Rain = 0
KLA1 190810Z 33010KT 09/01 A3011 RMK A01 T00910010  RH  057%=      5-min Rain = 0
KLA1 190811Z 32009KT 09/01 A3012 RMK A01 T00910011  RH  057%=      5-min Rain = 0
KLA1 190812Z 32013KT 09/01 A3012 RMK A01 T00900010  RH  057%=      5-min Rain = 0
KLA1 190813Z 32013G18KT 09/01 A3012 RMK A01 T00890009  RH  057%=      5-min Rain = 0
KLA1 190814Z 32014G22KT 09/01 A3012 RMK A01 T00890008  RH  057%=      5-min Rain = 0
KLA1 190815Z 32017G22KT 09/01 A3012 RMK A01 T00890006  RH  056%=      5-min Rain = 0
KLA1 190816Z 32016G21KT 09/01 A3012 RMK A01 T00890005  RH  056%=      5-min Rain = 0
KLA1 190817Z 33012G19KT 09/00 A3012 RMK A01 T00890004  RH  055%=      5-min Rain = 0
KLA1 190818Z 32015G24KT 09/00 A3012 RMK A01 T00900004  RH  055%=      5-min Rain = 0
KLA1 190819Z 31015G20KT 09/00 A3012 RMK A01 T00890003  RH  055%=      5-min Rain = 0
KLA1 190820Z 33009G14KT 09/00 A3012 RMK A01 T00890004  RH  055%=      5-min Rain = 0
KLA1 190821Z 33012G20KT 09/00 A3012 RMK A01 T00890004  RH  055%=      5-min Rain = 0
KLA1 190822Z 33016G22KT 09/00 A3012 RMK A01 T00880002  RH  055%=      5-min Rain = 0
KLA1 190823Z 32019KT 09/00 A3012 RMK A01 T00880000  RH  054%=      5-min Rain = 0
KLA1 190824Z 33013G19KT 09/00 A3012 RMK A01 T00880000  RH  054%=      5-min Rain = 0
KLA1 190825Z 33012G18KT 09/00 A3013 RMK A01 T00880001  RH  054%=      5-min Rain = 0
KLA1 190826Z 33010G16KT 09/00 A3013 RMK A01 T00870001  RH  054%=      5-min Rain = 0
KLA1 190827Z 33014G20KT 09/00 A3013 RMK A01 T00860000  RH  055%=      5-min Rain = 0
KLA1 190828Z 32017G22KT 09/M00 A3013 RMK A01 T00861001  RH  054%=      5-min Rain = 0
KLA1 190829Z 32018G26KT 09/M00 A3013 RMK A01 T00861002  RH  054%=      5-min Rain = 0
KLA1 190830Z 33016G21KT 09/M00 A3013 RMK A01 T00861002  RH  054%=      5-min Rain = 0
KLA1 190831Z 34010G15KT 09/M00 A3013 RMK A01 T00851002  RH  054%=      5-min Rain = 0
KLA1 190832Z 33009KT 08/M00 A3013 RMK A01 T00841002  RH  055%=      5-min Rain = 0
KLA1 190833Z 33010G15KT 08/M00 A3013 RMK A01 T00831002  RH  055%=      5-min Rain = 0
KLA1 190834Z 33009KT 08/M00 A3014 RMK A01 T00831003  RH  055%=      5-min Rain = 0
KLA1 190835Z 34008G13KT 08/M00 A3014 RMK A01 T00821003  RH  055%=      5-min Rain = 0
KLA1 190836Z 33013G18KT 08/M00 A3014 RMK A01 T00821004  RH  055%=      5-min Rain = 0
KLA1 190837Z 33008KT 08/M00 A3014 RMK A01 T00811004  RH  055%=      5-min Rain = 0
KLA1 190838Z 30012KT 08/M00 A3014 RMK A01 T00811004  RH  055%=      5-min Rain = 0
KLA1 190839Z 31008G13KT 08/M00 A3014 RMK A01 T00801004  RH  055%=      5-min Rain = 0
KLA1 190840Z 31007KT 08/M00 A3014 RMK A01 T00791004  RH  056%=      5-min Rain = 0
KLA1 190841Z 32009KT 08/M00 A3014 RMK A01 T00791004  RH  056%=      5-min Rain = 0
KLA1 190842Z 30007KT 08/M01 A3014 RMK A01 T00791005  RH  056%=      5-min Rain = 0
KLA1 190843Z 31006KT 08/M01 A3014 RMK A01 T00781005  RH  056%=      5-min Rain = 0
KLA1 190844Z 33011G18KT 08/M01 A3014 RMK A01 T00781005  RH  056%=      5-min Rain = 0
KLA1 190845Z 33009G17KT 08/M01 A3014 RMK A01 T00771006  RH  056%=      5-min Rain = 0
KLA1 190846Z 32012G20KT 08/M01 A3014 RMK A01 T00781006  RH  056%=      5-min Rain = 0
KLA1 190847Z 32014G22KT 08/M01 A3014 RMK A01 T00771006  RH  056%=      5-min Rain = 0
KLA1 190848Z 32012KT 08/M01 A3014 RMK A01 T00771006  RH  056%=      5-min Rain = 0
KLA1 190849Z 33008G14KT 08/M01 A3014 RMK A01 T00771006  RH  056%=      5-min Rain = 0
KLA1 190850Z 33009G14KT 08/M01 A3014 RMK A01 T00761006  RH  056%=      5-min Rain = 0
KLA1 190851Z 32009G14KT 08/M01 A3014 RMK A01 T00761006  RH  056%=      5-min Rain = 0
KLA1 190852Z 32007KT 08/M01 A3014 RMK A01 T00761006  RH  056%=      5-min Rain = 0
KLA1 190853Z 33011KT 08/M01 A3014 RMK A01 T00751006  RH  056%=      5-min Rain = 0
KLA1 190854Z 32015G20KT 08/M01 A3014 RMK A01 T00751005  RH  057%=      5-min Rain = 0
KLA1 190855Z 33011KT 08/M01 A3014 RMK A01 T00751005  RH  057%=      5-min Rain = 0
KLA1 190856Z 32012G20KT 08/M01 A3014 RMK A01 T00751005  RH  057%=      5-min Rain = 0
KLA1 190857Z 34009KT 08/M01 A3014 RMK A01 T00751005  RH  057%=      5-min Rain = 0
KLA1 190858Z 34009G14KT 08/M01 A3014 RMK A01 T00751005  RH  057%=      5-min Rain = 0
KLA1 190859Z 33010KT 07/M00 A3014 RMK A01 T00741004  RH  057%=      5-min Rain = 0
KLA1 190900Z 33013KT 07/M01 A3014 RMK A01 T00741005  RH  057%=      5-min Rain = 0
KLA1 190901Z 32012G19KT 07/M01 A3014 RMK A01 T00741005  RH  057%=      5-min Rain = 0
KLA1 190902Z 33009G14KT 07/M00 A3014 RMK A01 T00741004  RH  057%=      5-min Rain = 0
KLA1 190903Z 33012G17KT 07/M00 A3014 RMK A01 T00741004  RH  058%=      5-min Rain = 0
KLA1 190904Z 33010KT 07/M00 A3014 RMK A01 T00741004  RH  058%=      5-min Rain = 0
KLA1 190905Z 32010KT 07/M00 A3014 RMK A01 T00741004  RH  058%=      5-min Rain = 0
KLA1 190906Z 33012G20KT 07/M00 A3014 RMK A01 T00731004  RH  058%=      5-min Rain = 0
KLA1 190907Z 32017G25KT 07/M00 A3014 RMK A01 T00731004  RH  058%=      5-min Rain = 0
KLA1 190908Z 33009G16KT 07/M00 A3014 RMK A01 T00731004  RH  058%=      5-min Rain = 0
KLA1 190909Z 34007KT 07/M00 A3014 RMK A01 T00731004  RH  058%=      5-min Rain = 0
KLA1 190910Z 32013G22KT 07/M00 A3014 RMK A01 T00731004  RH  058%=      5-min Rain = 0
KLA1 190911Z 33013G20KT 07/M00 A3014 RMK A01 T00731003  RH  058%=      5-min Rain = 0
KLA1 190912Z 33013G19KT 07/M00 A3014 RMK A01 T00731003  RH  058%=      5-min Rain = 0
KLA1 190913Z 33009G14KT 07/M00 A3015 RMK A01 T00731003  RH  058%=      5-min Rain = 0
KLA1 190914Z 32015KT 07/M00 A3015 RMK A01 T00731003  RH  058%=      5-min Rain = 0
KLA1 190915Z 34013G20KT 07/M00 A3015 RMK A01 T00731003  RH  058%=      5-min Rain = 0
KLA1 190916Z 33011KT 07/M00 A3015 RMK A01 T00731003  RH  059%=      5-min Rain = 0
KLA1 190917Z 32012G17KT 07/M00 A3015 RMK A01 T00731003  RH  059%=      5-min Rain = 0
KLA1 190918Z 33010G19KT 07/M00 A3015 RMK A01 T00731003  RH  059%=      5-min Rain = 0
KLA1 190919Z 32015G20KT 07/M00 A3015 RMK A01 T00721003  RH  059%=      5-min Rain = 0
KLA1 190920Z 32015G24KT 07/M00 A3015 RMK A01 T00731003  RH  059%=      5-min Rain = 0
KLA1 190921Z 33013KT 07/M00 A3015 RMK A01 T00731003  RH  059%=      5-min Rain = 0
KLA1 190922Z 33010G15KT 07/M00 A3015 RMK A01 T00731003  RH  059%=      5-min Rain = 0
KLA1 190923Z 33013G23KT 07/M00 A3015 RMK A01 T00731003  RH  059%=      5-min Rain = 0
KLA1 190924Z 33008KT 07/M00 A3015 RMK A01 T00731002  RH  059%=      5-min Rain = 0
KLA1 190925Z 34008G13KT 07/M00 A3015 RMK A01 T00721002  RH  059%=      5-min Rain = 0
KLA1 190926Z 32008G18KT 07/M00 A3015 RMK A01 T00711002  RH  060%=      5-min Rain = 0
KLA1 190927Z 32012G19KT 07/M00 A3015 RMK A01 T00711002  RH  060%=      5-min Rain = 0
KLA1 190928Z 32009G15KT 07/M00 A3015 RMK A01 T00711002  RH  060%=      5-min Rain = 0
KLA1 190929Z 33008KT 07/M00 A3015 RMK A01 T00711002  RH  060%=      5-min Rain = 0
KLA1 190930Z 33012G17KT 07/M00 A3015 RMK A01 T00701002  RH  060%=      5-min Rain = 0
KLA1 190931Z 33010KT 07/M00 A3015 RMK A01 T00701002  RH  060%=      5-min Rain = 0
KLA1 190932Z 31010KT 07/M00 A3015 RMK A01 T00701002  RH  060%=      5-min Rain = 0
KLA1 190933Z 32020G26KT 07/M00 A3015 RMK A01 T00701002  RH  060%=      5-min Rain = 0
KLA1 190934Z 31018KT 07/M00 A3015 RMK A01 T00701002  RH  060%=      5-min Rain = 0
KLA1 190935Z 32016KT 07/M00 A3015 RMK A01 T00701002  RH  060%=      5-min Rain = 0
KLA1 190936Z 32012KT 07/M00 A3015 RMK A01 T00701002  RH  060%=      5-min Rain = 0
KLA1 190937Z 32014G19KT 07/M00 A3015 RMK A01 T00701001  RH  060%=      5-min Rain = 0
KLA1 190938Z 32015G22KT 07/M00 A3015 RMK A01 T00701001  RH  061%=      5-min Rain = 0
KLA1 190939Z 31017G26KT 07/M00 A3016 RMK A01 T00701001  RH  061%=      5-min Rain = 0
KLA1 190940Z 32017G23KT 07/M00 A3015 RMK A01 T00701001  RH  061%=      5-min Rain = 0
KLA1 190941Z 31016G24KT 07/M00 A3015 RMK A01 T00701001  RH  061%=      5-min Rain = 0
KLA1 190942Z 32013G20KT 07/M00 A3015 RMK A01 T00701001  RH  061%=      5-min Rain = 0
KLA1 190943Z 32015KT 07/M00 A3016 RMK A01 T00701001  RH  061%=      5-min Rain = 0
KLA1 190944Z 32016G25KT 07/00 A3016 RMK A01 T006900-0  RH  061%=      5-min Rain = 0
KLA1 190945Z 32015G22KT 07/00 A3016 RMK A01 T00690000  RH  061%=      5-min Rain = 0
KLA1 190946Z 32013G18KT 07/00 A3016 RMK A01 T00690000  RH  062%=      5-min Rain = 0
KLA1 190947Z 31016G21KT 07/00 A3016 RMK A01 T00690001  RH  062%=      5-min Rain = 0
KLA1 190948Z 32013G19KT 07/00 A3016 RMK A01 T00680001  RH  062%=      5-min Rain = 0
KLA1 190949Z 31018G29KT 07/00 A3016 RMK A01 T00680001  RH  062%=      5-min Rain = 0
KLA1 190950Z 32019G25KT 07/00 A3016 RMK A01 T00680001  RH  062%=      5-min Rain = 0
KLA1 190951Z 32014G21KT 07/00 A3016 RMK A01 T00680001  RH  062%=      5-min Rain = 0
KLA1 190952Z 32013KT 07/00 A3016 RMK A01 T00680001  RH  062%=      5-min Rain = 0
KLA1 190953Z 32012KT 07/00 A3016 RMK A01 T00680001  RH  062%=      5-min Rain = 0
KLA1 190954Z 31016KT 07/00 A3016 RMK A01 T00680001  RH  063%=      5-min Rain = 0
KLA1 190955Z 31017G25KT 07/00 A3016 RMK A01 T00670001  RH  063%=      5-min Rain = 0
KLA1 190956Z 32017G22KT 07/00 A3016 RMK A01 T00670001  RH  063%=      5-min Rain = 0
KLA1 190957Z 32012KT 07/00 A3016 RMK A01 T00670001  RH  062%=      5-min Rain = 0
KLA1 190958Z 31011G18KT 07/00 A3016 RMK A01 T00670001  RH  063%=      5-min Rain = 0
KLA1 190959Z 31019G26KT 07/00 A3016 RMK A01 T00670001  RH  063%=      5-min Rain = 0
KLA1 191000Z 30019G26KT 07/00 A3016 RMK A01 T00670001  RH  063%=      5-min Rain = 0
KLA1 191001Z 31015G20KT 07/00 A3016 RMK A01 T00670001  RH  063%=      5-min Rain = 0
KLA1 191002Z 31010KT 07/00 A3016 RMK A01 T00670002  RH  063%=      5-min Rain = 0
KLA1 191003Z 32012G17KT 07/00 A3016 RMK A01 T00670002  RH  063%=      5-min Rain = 0
KLA1 191004Z 31011G18KT 07/00 A3016 RMK A01 T00660002  RH  064%=      5-min Rain = 0
KLA1 191005Z 31012G19KT 07/00 A3016 RMK A01 T00660003  RH  064%=      5-min Rain = 0
KLA1 191006Z 31014G20KT 07/00 A3016 RMK A01 T00660003  RH  064%=      5-min Rain = 0
KLA1 191007Z 32013KT 07/00 A3016 RMK A01 T00670003  RH  064%=      5-min Rain = 0
KLA1 191008Z 32014G20KT 07/00 A3016 RMK A01 T00660003  RH  064%=      5-min Rain = 0
KLA1 191009Z 31015G20KT 07/00 A3016 RMK A01 T00660003  RH  064%=      5-min Rain = 0
KLA1 191010Z 31014G20KT 07/00 A3016 RMK A01 T00660003  RH  064%=      5-min Rain = 0
KLA1 191011Z 31015G25KT 07/00 A3017 RMK A01 T00670003  RH  064%=      5-min Rain = 0
KLA1 191012Z 31017G23KT 07/00 A3016 RMK A01 T00660003  RH  064%=      5-min Rain = 0
KLA1 191013Z 32012G23KT 07/00 A3017 RMK A01 T00670004  RH  064%=      5-min Rain = 0
KLA1 191014Z 32018KT 07/00 A3016 RMK A01 T00670004  RH  064%=      5-min Rain = 0
KLA1 191015Z 31018G24KT 07/00 A3016 RMK A01 T00660003  RH  064%=      5-min Rain = 0
KLA1 191016Z 31015KT 07/00 A3016 RMK A01 T00670004  RH  064%=      5-min Rain = 0
KLA1 191017Z 31017KT 07/00 A3017 RMK A01 T00670004  RH  064%=      5-min Rain = 0
KLA1 191018Z 32014G21KT 07/00 A3017 RMK A01 T00660004  RH  064%=      5-min Rain = 0
KLA1 191019Z 31015KT 07/00 A3017 RMK A01 T00670004  RH  065%=      5-min Rain = 0
KLA1 191020Z 32015G21KT 07/00 A3017 RMK A01 T00660004  RH  065%=      5-min Rain = 0
KLA1 191021Z 31019G24KT 07/00 A3017 RMK A01 T00660004  RH  065%=      5-min Rain = 0
KLA1 191022Z 32013G19KT 07/01 A3017 RMK A01 T00660005  RH  065%=      5-min Rain = 0
KLA1 191023Z 32014G22KT 07/00 A3017 RMK A01 T00660004  RH  065%=      5-min Rain = 0
KLA1 191024Z 32010KT 07/00 A3017 RMK A01 T00660004  RH  065%=      5-min Rain = 0
KLA1 191025Z 32008KT 07/01 A3017 RMK A01 T00660005  RH  065%=      5-min Rain = 0
KLA1 191026Z 33011KT 07/01 A3017 RMK A01 T00660005  RH  065%=      5-min Rain = 0
KLA1 191027Z 32012G17KT 07/01 A3017 RMK A01 T00650005  RH  065%=      5-min Rain = 0
KLA1 191028Z 31011G16KT 07/01 A3017 RMK A01 T00660005  RH  065%=      5-min Rain = 0
KLA1 191029Z 32013G18KT 07/01 A3017 RMK A01 T00650005  RH  065%=      5-min Rain = 0
KLA1 191030Z 32015KT 07/01 A3017 RMK A01 T00650005  RH  065%=      5-min Rain = 0
KLA1 191031Z 33013G22KT 07/00 A3017 RMK A01 T00660004  RH  065%=      5-min Rain = 0
KLA1 191032Z 32017KT 07/00 A3017 RMK A01 T00660004  RH  065%=      5-min Rain = 0
KLA1 191033Z 32016G21KT 07/01 A3017 RMK A01 T00660005  RH  065%=      5-min Rain = 0
KLA1 191034Z 31016G24KT 07/01 A3017 RMK A01 T00660005  RH  065%=      5-min Rain = 0
KLA1 191035Z 31017G22KT 07/01 A3017 RMK A01 T00660005  RH  065%=      5-min Rain = 0
KLA1 191036Z 31013KT 07/01 A3017 RMK A01 T00670005  RH  065%=      5-min Rain = 0
KLA1 191037Z 31011KT 07/01 A3017 RMK A01 T00660005  RH  065%=      5-min Rain = 0
KLA1 191038Z 31010KT 07/01 A3017 RMK A01 T00660005  RH  065%=      5-min Rain = 0
KLA1 191039Z 32012G18KT 07/01 A3017 RMK A01 T00650005  RH  065%=      5-min Rain = 0
KLA1 191040Z 32012G17KT 07/01 A3017 RMK A01 T00660005  RH  065%=      5-min Rain = 0
KLA1 191041Z 31014G19KT 07/01 A3017 RMK A01 T00660005  RH  065%=      5-min Rain = 0
KLA1 191042Z 32015G21KT 07/00 A3017 RMK A01 T00650004  RH  065%=      5-min Rain = 0
KLA1 191043Z 32013KT 07/00 A3017 RMK A01 T00660004  RH  065%=      5-min Rain = 0
KLA1 191044Z 31018G23KT 07/00 A3017 RMK A01 T00660004  RH  065%=      5-min Rain = 0
KLA1 191045Z 32017G23KT 07/00 A3017 RMK A01 T00660004  RH  064%=      5-min Rain = 0
KLA1 191046Z 32016G23KT 07/00 A3017 RMK A01 T00670004  RH  064%=      5-min Rain = 0
KLA1 191047Z 33013G21KT 07/00 A3017 RMK A01 T00670003  RH  064%=      5-min Rain = 0
KLA1 191048Z 32015KT 07/00 A3017 RMK A01 T00670004  RH  064%=      5-min Rain = 0
KLA1 191049Z 31013G19KT 07/00 A3018 RMK A01 T00670004  RH  064%=      5-min Rain = 0
KLA1 191050Z 31018KT 07/00 A3018 RMK A01 T00670003  RH  064%=      5-min Rain = 0
KLA1 191051Z 31015G20KT 07/00 A3018 RMK A01 T00660002  RH  063%=      5-min Rain = 0
KLA1 191052Z 32013G19KT 07/00 A3018 RMK A01 T00660001  RH  063%=      5-min Rain = 0
KLA1 191053Z 32017G24KT 07/00 A3018 RMK A01 T00670000  RH  063%=      5-min Rain = 0
KLA1 191054Z 32015G22KT 07/M00 A3018 RMK A01 T00671001  RH  062%=      5-min Rain = 0
KLA1 191055Z 32017G25KT 07/M00 A3018 RMK A01 T00671002  RH  061%=      5-min Rain = 0
KLA1 191056Z 32013G19KT 07/M00 A3018 RMK A01 T00671003  RH  061%=      5-min Rain = 0
KLA1 191057Z 32015G25KT 07/M00 A3018 RMK A01 T00671002  RH  061%=      5-min Rain = 0
KLA1 191058Z 32016KT 07/M00 A3018 RMK A01 T00671002  RH  061%=      5-min Rain = 0
KLA1 191059Z 32014G21KT 07/M00 A3018 RMK A01 T00671002  RH  061%=      5-min Rain = 0
KLA1 191100Z 31017G25KT 07/M00 A3018 RMK A01 T00671002  RH  061%=      5-min Rain = 0
KLA1 191101Z 32014G19KT 07/M00 A3018 RMK A01 T00661003  RH  061%=      5-min Rain = 0
KLA1 191102Z 32011G17KT 07/M00 A3018 RMK A01 T00661004  RH  061%=      5-min Rain = 0
KLA1 191103Z 31014G21KT 07/M00 A3018 RMK A01 T00661003  RH  061%=      5-min Rain = 0
KLA1 191104Z 32014G20KT 07/M00 A3018 RMK A01 T00661003  RH  062%=      5-min Rain = 0
KLA1 191105Z 31016G22KT 07/M00 A3018 RMK A01 T00661003  RH  062%=      5-min Rain = 0
KLA1 191106Z 32014KT 07/M00 A3018 RMK A01 T00651002  RH  062%=      5-min Rain = 0
KLA1 191107Z 32015G20KT 07/M00 A3018 RMK A01 T00651002  RH  062%=      5-min Rain = 0
KLA1 191108Z 31020G27KT 07/M00 A3018 RMK A01 T00651003  RH  062%=      5-min Rain = 0
KLA1 191109Z 32015G21KT 07/M00 A3018 RMK A01 T00651003  RH  062%=      5-min Rain = 0
KLA1 191110Z 31019G25KT 07/M00 A3018 RMK A01 T00651003  RH  062%=      5-min Rain = 0
KLA1 191111Z 32016KT 07/M00 A3018 RMK A01 T00651004  RH  061%=      5-min Rain = 0
KLA1 191112Z 32014KT 07/M00 A3018 RMK A01 T00651003  RH  062%=      5-min Rain = 0
KLA1 191113Z 31013KT 07/M00 A3018 RMK A01 T00651003  RH  062%=      5-min Rain = 0
KLA1 191114Z 32015G21KT 06/M00 A3019 RMK A01 T00641002  RH  062%=      5-min Rain = 0
KLA1 191115Z 32015G23KT 06/M00 A3019 RMK A01 T00641003  RH  062%=      5-min Rain = 0
KLA1 191116Z 31012G17KT 06/M00 A3019 RMK A01 T00641003  RH  062%=      5-min Rain = 0
KLA1 191117Z 32013G18KT 06/M00 A3019 RMK A01 T00641003  RH  062%=      5-min Rain = 0
KLA1 191118Z 32016KT 06/M00 A3019 RMK A01 T00641003  RH  062%=      5-min Rain = 0
KLA1 191119Z 32015G20KT 06/M00 A3019 RMK A01 T00641004  RH  062%=      5-min Rain = 0
KLA1 191120Z 32015G22KT 06/M00 A3019 RMK A01 T00641004  RH  062%=      5-min Rain = 0
KLA1 191121Z 31014KT 06/M00 A3019 RMK A01 T00641004  RH  062%=      5-min Rain = 0
KLA1 191122Z 33012G20KT 06/M00 A3019 RMK A01 T00641004  RH  062%=      5-min Rain = 0
KLA1 191123Z 31015KT 06/M01 A3019 RMK A01 T00641005  RH  062%=      5-min Rain = 0
KLA1 191124Z 33011G16KT 06/M00 A3019 RMK A01 T00641004  RH  062%=      5-min Rain = 0
KLA1 191125Z 31016G25KT 06/M00 A3019 RMK A01 T00631004  RH  062%=      5-min Rain = 0
KLA1 191126Z 31012KT 06/M00 A3019 RMK A01 T00631004  RH  062%=      5-min Rain = 0
KLA1 191127Z 32012G17KT 06/M01 A3019 RMK A01 T00631005  RH  062%=      5-min Rain = 0
KLA1 191128Z 32010KT 06/M00 A3019 RMK A01 T00621004  RH  062%=      5-min Rain = 0
KLA1 191129Z 32011KT 06/M00 A3019 RMK A01 T00621004  RH  062%=      5-min Rain = 0
KLA1 191130Z 31013G21KT 06/M01 A3019 RMK A01 T00621005  RH  062%=      5-min Rain = 0
KLA1 191131Z 31016G25KT 06/M01 A3019 RMK A01 T00621006  RH  062%=      5-min Rain = 0
KLA1 191132Z 31013KT 06/M01 A3019 RMK A01 T00621006  RH  062%=      5-min Rain = 0
KLA1 191133Z 31018G26KT 06/M01 A3019 RMK A01 T00621007  RH  061%=      5-min Rain = 0
KLA1 191134Z 32017KT 06/M01 A3019 RMK A01 T00621008  RH  061%=      5-min Rain = 0
KLA1 191135Z 31017G23KT 06/M01 A3019 RMK A01 T00631008  RH  061%=      5-min Rain = 0
KLA1 191136Z 32013KT 06/M01 A302 RMK A01 T00631008  RH  060%=      5-min Rain = 0
KLA1 191137Z 32012KT 06/M01 A302 RMK A01 T00631008  RH  061%=      5-min Rain = 0
KLA1 191138Z 31014G20KT 06/M01 A302 RMK A01 T00621008  RH  061%=      5-min Rain = 0
KLA1 191139Z 31016G21KT 06/M01 A3019 RMK A01 T00621008  RH  061%=      5-min Rain = 0
KLA1 191140Z 31015G21KT 06/M01 A302 RMK A01 T00621008  RH  061%=      5-min Rain = 0
KLA1 191141Z 32017G23KT 06/M01 A302 RMK A01 T00621009  RH  060%=      5-min Rain = 0
KLA1 191142Z 32017G22KT 06/M01 A302 RMK A01 T00611010  RH  060%=      5-min Rain = 0
KLA1 191143Z 32013G21KT 06/M01 A302 RMK A01 T00611011  RH  060%=      5-min Rain = 0
KLA1 191144Z 31019G24KT 06/M01 A302 RMK A01 T00621011  RH  060%=      5-min Rain = 0
KLA1 191145Z 32015G21KT 06/M01 A302 RMK A01 T00611011  RH  060%=      5-min Rain = 0
KLA1 191146Z 32017G23KT 06/M01 A302 RMK A01 T00621011  RH  060%=      5-min Rain = 0
KLA1 191147Z 32016KT 06/M01 A302 RMK A01 T00611013  RH  059%=      5-min Rain = 0
KLA1 191148Z 32013KT 06/M01 A302 RMK A01 T00611013  RH  059%=      5-min Rain = 0
KLA1 191149Z 32014G21KT 06/M01 A302 RMK A01 T00611013  RH  059%=      5-min Rain = 0
KLA1 191150Z 32016KT 06/M01 A302 RMK A01 T00611013  RH  059%=      5-min Rain = 0
KLA1 191151Z 32014G19KT 06/M01 A302 RMK A01 T00601014  RH  059%=      5-min Rain = 0
KLA1 191152Z 32012G17KT 06/M01 A302 RMK A01 T00601014  RH  059%=      5-min Rain = 0
KLA1 191153Z 32011KT 06/M01 A302 RMK A01 T00601013  RH  059%=      5-min Rain = 0
KLA1 191154Z 31014G21KT 06/M01 A302 RMK A01 T00591014  RH  059%=      5-min Rain = 0
KLA1 191155Z 32017KT 06/M02 A302 RMK A01 T00591015  RH  059%=      5-min Rain = 0
KLA1 191156Z 32017G23KT 06/M02 A3021 RMK A01 T00591016  RH  058%=      5-min Rain = 0
KLA1 191157Z 31016G21KT 06/M02 A3021 RMK A01 T00591017  RH  058%=      5-min Rain = 0
KLA1 191158Z 32013G22KT 06/M02 A3021 RMK A01 T00591017  RH  058%=      5-min Rain = 0
KLA1 191159Z 32011G17KT 06/M02 A3021 RMK A01 T00601017  RH  058%=      5-min Rain = 0
KLA1 191200Z 32013G18KT 06/M02 A3021 RMK A01 T00601017  RH  058%=      5-min Rain = 0
KLA1 191201Z 32017KT 06/M02 A3021 RMK A01 T00591018  RH  058%=      5-min Rain = 0
KLA1 191202Z 32013KT 06/M02 A3021 RMK A01 T00591019  RH  057%=      5-min Rain = 0
KLA1 191203Z 32010G17KT 06/M02 A3021 RMK A01 T00601019  RH  057%=      5-min Rain = 0
KLA1 191204Z 33013KT 06/M02 A3021 RMK A01 T00601019  RH  057%=      5-min Rain = 0
KLA1 191205Z 35008KT 06/M02 A3021 RMK A01 T00591020  RH  057%=      5-min Rain = 0
KLA1 191206Z 32010G15KT 06/M02 A3021 RMK A01 T00601019  RH  057%=      5-min Rain = 0
KLA1 191207Z 33010G16KT 06/M02 A3021 RMK A01 T00601020  RH  057%=      5-min Rain = 0
KLA1 191208Z 33009G15KT 06/M02 A3022 RMK A01 T00601020  RH  057%=      5-min Rain = 0
KLA1 191209Z 31011G18KT 06/M02 A3022 RMK A01 T00591021  RH  056%=      5-min Rain = 0
KLA1 191210Z 33009G15KT 06/M02 A3022 RMK A01 T00601021  RH  056%=      5-min Rain = 0
KLA1 191211Z 33009KT 06/M02 A3022 RMK A01 T00601020  RH  057%=      5-min Rain = 0
KLA1 191212Z 33011G18KT 06/M02 A3022 RMK A01 T00601020  RH  057%=      5-min Rain = 0
KLA1 191213Z 34009KT 06/M02 A3022 RMK A01 T00601019  RH  057%=      5-min Rain = 0
KLA1 191214Z 33009KT 06/M02 A3022 RMK A01 T00601019  RH  057%=      5-min Rain = 0
KLA1 191215Z 34007G12KT 06/M02 A3022 RMK A01 T00591019  RH  057%=      5-min Rain = 0
KLA1 191216Z 34010G16KT 06/M02 A3022 RMK A01 T00591019  RH  057%=      5-min Rain = 0
KLA1 191217Z 32014G19KT 06/M02 A3022 RMK A01 T00591020  RH  057%=      5-min Rain = 0
KLA1 191218Z 33012KT 06/M02 A3022 RMK A01 T00591020  RH  057%=      5-min Rain = 0
KLA1 191219Z 32012KT 06/M02 A3023 RMK A01 T00601020  RH  057%=      5-min Rain = 0
KLA1 191220Z 34012KT 06/M02 A3023 RMK A01 T00601020  RH  057%=      5-min Rain = 0
KLA1 191221Z 33010G18KT 06/M02 A3023 RMK A01 T00601020  RH  056%=      5-min Rain = 0
KLA1 191222Z 32008G13KT 06/M02 A3023 RMK A01 T00601020  RH  057%=      5-min Rain = 0
KLA1 191223Z 32011KT 06/M02 A3023 RMK A01 T00591019  RH  057%=      5-min Rain = 0
KLA1 191224Z 33011KT 06/M02 A3023 RMK A01 T00591020  RH  057%=      5-min Rain = 0
KLA1 191225Z 33013G19KT 06/M02 A3023 RMK A01 T00591020  RH  057%=      5-min Rain = 0
KLA1 191226Z 33011KT 06/M02 A3023 RMK A01 T00591020  RH  057%=      5-min Rain = 0
KLA1 191227Z 33012G17KT 06/M02 A3023 RMK A01 T00591020  RH  057%=      5-min Rain = 0
KLA1 191228Z 33010KT 06/M02 A3023 RMK A01 T00591020  RH  057%=      5-min Rain = 0
KLA1 191229Z 33008G13KT 06/M02 A3024 RMK A01 T00591020  RH  057%=      5-min Rain = 0
KLA1 191230Z 33009G14KT 06/M02 A3023 RMK A01 T00591020  RH  057%=      5-min Rain = 0
KLA1 191231Z 32014G21KT 06/M02 A3023 RMK A01 T00591020  RH  057%=      5-min Rain = 0
KLA1 191232Z 33012KT 06/M02 A3024 RMK A01 T00591021  RH  057%=      5-min Rain = 0
KLA1 191233Z 33012G19KT 06/M02 A3023 RMK A01 T00591021  RH  056%=      5-min Rain = 0
KLA1 191234Z 32013KT 06/M02 A3024 RMK A01 T00601021  RH  056%=      5-min Rain = 0
KLA1 191235Z 33012G17KT 06/M02 A3024 RMK A01 T00591021  RH  056%=      5-min Rain = 0
KLA1 191236Z 33009G15KT 06/M02 A3024 RMK A01 T00601021  RH  056%=      5-min Rain = 0
KLA1 191237Z 33009KT 06/M02 A3024 RMK A01 T00591020  RH  057%=      5-min Rain = 0
KLA1 191238Z 34011G18KT 06/M02 A3024 RMK A01 T00591020  RH  057%=      5-min Rain = 0
KLA1 191239Z 33013G18KT 06/M02 A3024 RMK A01 T00591021  RH  057%=      5-min Rain = 0
KLA1 191240Z 33012G17KT 06/M02 A3024 RMK A01 T00591021  RH  056%=      5-min Rain = 0
KLA1 191241Z 34010KT 06/M02 A3024 RMK A01 T00591021  RH  056%=      5-min Rain = 0
KLA1 191242Z 32012G17KT 06/M02 A3025 RMK A01 T00591021  RH  056%=      5-min Rain = 0
KLA1 191243Z 34009KT 06/M02 A3025 RMK A01 T00591021  RH  056%=      5-min Rain = 0
KLA1 191244Z 33009KT 06/M02 A3025 RMK A01 T00591021  RH  056%=      5-min Rain = 0
KLA1 191245Z 33009KT 06/M02 A3025 RMK A01 T00591021  RH  056%=      5-min Rain = 0
KLA1 191246Z 34008KT 06/M02 A3025 RMK A01 T00591022  RH  056%=      5-min Rain = 0
KLA1 191247Z 33007KT 06/M02 A3025 RMK A01 T00591021  RH  056%=      5-min Rain = 0
KLA1 191248Z 33010G15KT 06/M02 A3025 RMK A01 T00581022  RH  056%=      5-min Rain = 0
KLA1 191249Z 33008G13KT 06/M02 A3025 RMK A01 T00581022  RH  056%=      5-min Rain = 0
KLA1 191250Z 34008KT 06/M02 A3025 RMK A01 T00581022  RH  056%=      5-min Rain = 0
KLA1 191251Z 33008G13KT 06/M02 A3025 RMK A01 T00581022  RH  056%=      5-min Rain = 0
KLA1 191252Z 34009G14KT 06/M02 A3025 RMK A01 T00581021  RH  057%=      5-min Rain = 0
KLA1 191253Z 33010KT 06/M02 A3025 RMK A01 T00581021  RH  057%=      5-min Rain = 0
KLA1 191254Z 32013KT 06/M02 A3025 RMK A01 T00581022  RH  057%=      5-min Rain = 0
KLA1 191255Z 32009G16KT 06/M02 A3025 RMK A01 T00581022  RH  057%=      5-min Rain = 0
KLA1 191256Z 32011G16KT 06/M02 A3025 RMK A01 T00581021  RH  057%=      5-min Rain = 0
KLA1 191257Z 32012KT 06/M02 A3026 RMK A01 T00581021  RH  057%=      5-min Rain = 0
KLA1 191258Z 33008KT 06/M02 A3026 RMK A01 T00581021  RH  057%=      5-min Rain = 0
KLA1 191259Z 32013KT 06/M02 A3025 RMK A01 T00571021  RH  057%=      5-min Rain = 0
KLA1 191300Z 33008KT 06/M02 A3026 RMK A01 T00571021  RH  057%=      5-min Rain = 0
KLA1 191301Z 33010KT 06/M02 A3026 RMK A01 T00571021  RH  057%=      5-min Rain = 0
KLA1 191302Z 32010G15KT 06/M02 A3026 RMK A01 T00571021  RH  057%=      5-min Rain = 0
KLA1 191303Z 32010G18KT 06/M02 A3026 RMK A01 T00561021  RH  058%=      5-min Rain = 0
KLA1 191304Z 33011G18KT 06/M02 A3026 RMK A01 T00561021  RH  057%=      5-min Rain = 0
KLA1 191305Z 33010G16KT 06/M02 A3026 RMK A01 T00561022  RH  057%=      5-min Rain = 0
KLA1 191306Z 32011KT 06/M02 A3026 RMK A01 T00571022  RH  057%=      5-min Rain = 0
KLA1 191307Z 32011G17KT 06/M02 A3026 RMK A01 T00561022  RH  057%=      5-min Rain = 0
KLA1 191308Z 33009G14KT 06/M02 A3026 RMK A01 T00561022  RH  057%=      5-min Rain = 0
KLA1 191309Z 33009KT 06/M02 A3026 RMK A01 T00561022  RH  057%=      5-min Rain = 0
KLA1 191310Z 32011KT 06/M02 A3027 RMK A01 T00561023  RH  057%=      5-min Rain = 0
KLA1 191311Z 32012G17KT 06/M02 A3027 RMK A01 T00571024  RH  056%=      5-min Rain = 0
KLA1 191312Z 34009KT 06/M02 A3027 RMK A01 T00571024  RH  056%=      5-min Rain = 0
KLA1 191313Z 32011KT 06/M02 A3027 RMK A01 T00581023  RH  056%=      5-min Rain = 0
KLA1 191314Z 32013KT 06/M02 A3027 RMK A01 T00571023  RH  056%=      5-min Rain = 0
KLA1 191315Z 34008KT 06/M02 A3027 RMK A01 T00571024  RH  056%=      5-min Rain = 0
KLA1 191316Z 34013KT 06/M02 A3027 RMK A01 T00571023  RH  056%=      5-min Rain = 0
KLA1 191317Z 33013KT 06/M02 A3027 RMK A01 T00571024  RH  056%=      5-min Rain = 0
KLA1 191318Z 32009KT 06/M02 A3027 RMK A01 T00571024  RH  056%=      5-min Rain = 0
KLA1 191319Z 33008KT 06/M02 A3028 RMK A01 T00571023  RH  056%=      5-min Rain = 0
KLA1 191320Z 33011KT 06/M02 A3028 RMK A01 T00561024  RH  056%=      5-min Rain = 0
KLA1 191321Z 32009KT 06/M02 A3028 RMK A01 T00561024  RH  056%=      5-min Rain = 0
KLA1 191322Z 34007G13KT 06/M02 A3028 RMK A01 T00571024  RH  056%=      5-min Rain = 0
KLA1 191323Z 35008KT 06/M02 A3028 RMK A01 T00571024  RH  056%=      5-min Rain = 0
KLA1 191324Z 33006KT 06/M02 A3028 RMK A01 T00561024  RH  056%=      5-min Rain = 0
KLA1 191325Z 34006KT 06/M02 A3028 RMK A01 T00561024  RH  057%=      5-min Rain = 0
KLA1 191326Z 33007KT 06/M02 A3028 RMK A01 T00551024  RH  056%=      5-min Rain = 0
KLA1 191327Z 33008KT 06/M03 A3028 RMK A01 T00561025  RH  056%=      5-min Rain = 0
KLA1 191328Z 32005KT 06/M03 A3028 RMK A01 T00551025  RH  056%=      5-min Rain = 0
KLA1 191329Z 33008KT 06/M03 A3028 RMK A01 T00551025  RH  056%=      5-min Rain = 0
KLA1 191330Z 34007KT 06/M03 A3028 RMK A01 T00561025  RH  056%=      5-min Rain = 0
KLA1 191331Z 35009KT 06/M03 A3028 RMK A01 T00561026  RH  056%=      5-min Rain = 0
KLA1 191332Z 35011KT 06/M03 A3028 RMK A01 T00561026  RH  056%=      5-min Rain = 0
KLA1 191333Z 34009KT 06/M03 A3029 RMK A01 T00561027  RH  055%=      5-min Rain = 0
KLA1 191334Z 33007KT 06/M03 A3029 RMK A01 T00571026  RH  055%=      5-min Rain = 0
KLA1 191335Z 33007G13KT 06/M03 A3029 RMK A01 T00571025  RH  055%=      5-min Rain = 0
KLA1 191336Z 33008KT 06/M03 A3029 RMK A01 T00561026  RH  056%=      5-min Rain = 0
KLA1 191337Z 33006KT 06/M03 A3029 RMK A01 T00561026  RH  056%=      5-min Rain = 0
KLA1 191338Z 33005KT 06/M03 A3029 RMK A01 T00561026  RH  056%=      5-min Rain = 0
KLA1 191339Z 33008KT 06/M03 A3029 RMK A01 T00561026  RH  056%=      5-min Rain = 0
KLA1 191340Z 33007KT 06/M03 A3029 RMK A01 T00561027  RH  055%=      5-min Rain = 0
KLA1 191341Z 34007KT 06/M03 A3029 RMK A01 T00561026  RH  056%=      5-min Rain = 0
KLA1 191342Z 33006KT 06/M03 A3029 RMK A01 T00551026  RH  056%=      5-min Rain = 0
KLA1 191343Z 33005KT 06/M03 A3029 RMK A01 T00551026  RH  056%=      5-min Rain = 0
KLA1 191344Z 34005KT 06/M03 A3029 RMK A01 T00561026  RH  056%=      5-min Rain = 0
KLA1 191345Z 33007KT 06/M03 A303 RMK A01 T00551026  RH  056%=      5-min Rain = 0
KLA1 191346Z 33007KT 06/M03 A303 RMK A01 T00551026  RH  056%=      5-min Rain = 0
KLA1 191347Z 32008KT 06/M03 A303 RMK A01 T00551026  RH  056%=      5-min Rain = 0
KLA1 191348Z 33011KT 06/M03 A303 RMK A01 T00551026  RH  056%=      5-min Rain = 0
KLA1 191349Z 34009KT 06/M03 A303 RMK A01 T00561027  RH  055%=      5-min Rain = 0
KLA1 191350Z 33009KT 06/M03 A303 RMK A01 T00561027  RH  055%=      5-min Rain = 0
KLA1 191351Z 34008KT 06/M03 A303 RMK A01 T00561027  RH  055%=      5-min Rain = 0
KLA1 191352Z 32010KT 06/M03 A303 RMK A01 T00561027  RH  055%=      5-min Rain = 0
KLA1 191353Z 32008KT 06/M03 A303 RMK A01 T00561027  RH  055%=      5-min Rain = 0
KLA1 191354Z 34009KT 06/M03 A303 RMK A01 T00561027  RH  055%=      5-min Rain = 0
KLA1 191355Z 34011KT 06/M03 A303 RMK A01 T00561027  RH  055%=      5-min Rain = 0
KLA1 191356Z 32009KT 06/M03 A303 RMK A01 T00561028  RH  055%=      5-min Rain = 0
KLA1 191357Z 32010KT 06/M03 A303 RMK A01 T00571027  RH  055%=      5-min Rain = 0
KLA1 191358Z 32009KT 06/M03 A303 RMK A01 T00571027  RH  055%=      5-min Rain = 0
KLA1 191359Z 32007KT 06/M03 A3031 RMK A01 T00571027  RH  055%=      5-min Rain = 0
KLA1 191400Z 33005KT 06/M03 A3031 RMK A01 T00571026  RH  055%=      5-min Rain = 0
KLA1 191401Z 35005KT 06/M03 A3031 RMK A01 T00571026  RH  055%=      5-min Rain = 0
KLA1 191402Z 33005KT 06/M03 A3031 RMK A01 T00561026  RH  055%=      5-min Rain = 0
KLA1 191403Z 32006KT 06/M03 A3031 RMK A01 T00561026  RH  056%=      5-min Rain = 0
KLA1 191404Z 33006KT 06/M03 A3031 RMK A01 T00561026  RH  056%=      5-min Rain = 0
KLA1 191405Z 32006KT 06/M03 A3031 RMK A01 T00551026  RH  056%=      5-min Rain = 0
KLA1 191406Z 34005KT 06/M03 A3031 RMK A01 T00561026  RH  056%=      5-min Rain = 0
KLA1 191407Z 32008KT 06/M03 A3031 RMK A01 T00551027  RH  055%=      5-min Rain = 0
KLA1 191408Z 33006G11KT 06/M03 A3031 RMK A01 T00561027  RH  055%=      5-min Rain = 0
KLA1 191409Z 33007KT 06/M03 A3031 RMK A01 T00571026  RH  055%=      5-min Rain = 0
KLA1 191410Z 33005KT 06/M03 A3031 RMK A01 T00571026  RH  055%=      5-min Rain = 0
KLA1 191411Z 32006KT 06/M03 A3031 RMK A01 T00581026  RH  055%=      5-min Rain = 0
KLA1 191412Z 34006KT 06/M03 A3031 RMK A01 T00591025  RH  055%=      5-min Rain = 0
KLA1 191413Z 33006KT 06/M03 A3031 RMK A01 T00591025  RH  055%=      5-min Rain = 0
KLA1 191414Z 32007KT 06/M03 A3031 RMK A01 T00591025  RH  055%=      5-min Rain = 0
KLA1 191415Z 32007KT 06/M03 A3031 RMK A01 T00601025  RH  054%=      5-min Rain = 0
KLA1 191416Z 32007KT 06/M03 A3032 RMK A01 T00601025  RH  054%=      5-min Rain = 0
KLA1 191417Z 32006KT 06/M03 A3032 RMK A01 T00601025  RH  054%=      5-min Rain = 0
KLA1 191418Z 32008KT 06/M03 A3032 RMK A01 T00601025  RH  054%=      5-min Rain = 0
KLA1 191419Z 31006G11KT 06/M03 A3032 RMK A01 T00611025  RH  054%=      5-min Rain = 0
KLA1 191420Z 31006KT 06/M03 A3032 RMK A01 T00611025  RH  054%=      5-min Rain = 0
KLA1 191421Z 31007KT 06/M02 A3032 RMK A01 T00611024  RH  054%=      5-min Rain = 0
KLA1 191422Z 31008KT 06/M02 A3032 RMK A01 T00611023  RH  055%=      5-min Rain = 0
KLA1 191423Z 30007KT 06/M02 A3032 RMK A01 T00611023  RH  055%=      5-min Rain = 0
KLA1 191424Z 32008KT 06/M02 A3032 RMK A01 T00601023  RH  055%=      5-min Rain = 0
KLA1 191425Z 32007KT 06/M02 A3032 RMK A01 T00611024  RH  055%=      5-min Rain = 0
KLA1 191426Z 32006KT 06/M02 A3032 RMK A01 T00611024  RH  054%=      5-min Rain = 0
KLA1 191427Z 31006KT 06/M02 A3032 RMK A01 T00611023  RH  055%=      5-min Rain = 0
KLA1 191428Z 31005KT 06/M02 A3032 RMK A01 T00611023  RH  055%=      5-min Rain = 0
KLA1 191429Z 32006KT 06/M02 A3032 RMK A01 T00611023  RH  055%=      5-min Rain = 0
KLA1 191430Z 30005KT 06/M02 A3033 RMK A01 T00621023  RH  055%=      5-min Rain = 0
KLA1 191431Z 32005KT 06/M02 A3033 RMK A01 T00621022  RH  055%=      5-min Rain = 0
KLA1 191432Z 32006KT 06/M02 A3033 RMK A01 T00621021  RH  055%=      5-min Rain = 0
KLA1 191433Z 32006KT 06/M02 A3033 RMK A01 T00621021  RH  055%=      5-min Rain = 0
KLA1 191434Z 32008KT 06/M02 A3033 RMK A01 T00631022  RH  054%=      5-min Rain = 0
KLA1 191435Z 32005KT 06/M02 A3033 RMK A01 T00631023  RH  054%=      5-min Rain = 0
KLA1 191436Z 32006KT 06/M02 A3033 RMK A01 T00641022  RH  054%=      5-min Rain = 0
KLA1 191437Z 32008KT 06/M02 A3033 RMK A01 T00641023  RH  054%=      5-min Rain = 0
KLA1 191438Z 31006KT 06/M02 A3033 RMK A01 T00641023  RH  054%=      5-min Rain = 0
KLA1 191439Z 32008KT 06/M02 A3033 RMK A01 T00641023  RH  054%=      5-min Rain = 0
KLA1 191440Z 32008KT 07/M02 A3033 RMK A01 T00651023  RH  054%=      5-min Rain = 0
KLA1 191441Z 32007KT 07/M02 A3033 RMK A01 T00651023  RH  053%=      5-min Rain = 0
KLA1 191442Z 31009G16KT 07/M02 A3034 RMK A01 T00651022  RH  054%=      5-min Rain = 0
KLA1 191443Z 32011KT 07/M02 A3034 RMK A01 T00661024  RH  053%=      5-min Rain = 0
KLA1 191444Z 32008KT 07/M02 A3034 RMK A01 T00661024  RH  052%=      5-min Rain = 0
KLA1 191445Z 32011KT 07/M02 A3034 RMK A01 T00671024  RH  053%=      5-min Rain = 0
KLA1 191446Z 32009KT 07/M03 A3034 RMK A01 T00671025  RH  052%=      5-min Rain = 0
KLA1 191447Z 33009KT 07/M03 A3034 RMK A01 T00671025  RH  052%=      5-min Rain = 0
KLA1 191448Z 32012G17KT 07/M03 A3034 RMK A01 T00671025  RH  052%=      5-min Rain = 0
KLA1 191449Z 31009KT 07/M03 A3034 RMK A01 T00681025  RH  051%=      5-min Rain = 0
KLA1 191450Z 32008KT 07/M02 A3034 RMK A01 T00681023  RH  052%=      5-min Rain = 0
KLA1 191451Z 32007KT 07/M02 A3034 RMK A01 T00681024  RH  052%=      5-min Rain = 0
KLA1 191452Z 32007KT 07/M02 A3034 RMK A01 T00691024  RH  052%=      5-min Rain = 0
KLA1 191453Z 33007KT 07/M02 A3034 RMK A01 T00691023  RH  052%=      5-min Rain = 0
KLA1 191454Z 34006KT 07/M02 A3034 RMK A01 T00701023  RH  052%=      5-min Rain = 0
KLA1 191455Z 35006KT 07/M02 A3034 RMK A01 T00711022  RH  051%=      5-min Rain = 0
KLA1 191456Z 34007KT 07/M02 A3034 RMK A01 T00721024  RH  050%=      5-min Rain = 0
KLA1 191457Z 32006KT 07/M02 A3034 RMK A01 T00721024  RH  051%=      5-min Rain = 0
KLA1 191458Z 32007KT 07/M02 A3034 RMK A01 T00721023  RH  051%=      5-min Rain = 0
KLA1 191459Z 33009KT 07/M02 A3034 RMK A01 T00721024  RH  050%=      5-min Rain = 0
KLA1 191500Z 34008KT 07/M02 A3034 RMK A01 T00721024  RH  050%=      5-min Rain = 0
KLA1 191501Z 32009KT 07/M02 A3034 RMK A01 T00731023  RH  050%=      5-min Rain = 0
KLA1 191502Z 33008KT 07/M02 A3034 RMK A01 T00731023  RH  050%=      5-min Rain = 0
KLA1 191503Z 31012KT 07/M02 A3034 RMK A01 T00731024  RH  050%=      5-min Rain = 0
KLA1 191504Z 33008KT 07/M02 A3035 RMK A01 T00731024  RH  050%=      5-min Rain = 0
KLA1 191505Z 35007KT 07/M02 A3035 RMK A01 T00741022  RH  051%=      5-min Rain = 0
KLA1 191506Z 34007KT 08/M02 A3035 RMK A01 T00751023  RH  050%=      5-min Rain = 0
KLA1 191507Z 34006KT 08/M02 A3035 RMK A01 T00751022  RH  050%=      5-min Rain = 0
KLA1 191508Z 35009KT 08/M02 A3035 RMK A01 T00761021  RH  050%=      5-min Rain = 0
KLA1 191509Z 36008KT 08/M02 A3034 RMK A01 T00761022  RH  050%=      5-min Rain = 0
KLA1 191510Z 33008KT 08/M02 A3034 RMK A01 T00771021  RH  050%=      5-min Rain = 0
KLA1 191511Z 33007KT 08/M02 A3035 RMK A01 T00771021  RH  050%=      5-min Rain = 0
KLA1 191512Z 34007KT 08/M02 A3034 RMK A01 T00771021  RH  050%=      5-min Rain = 0
KLA1 191513Z 35009KT 08/M02 A3035 RMK A01 T00771020  RH  050%=      5-min Rain = 0
KLA1 191514Z 33010KT 08/M02 A3035 RMK A01 T00781022  RH  049%=      5-min Rain = 0
KLA1 191515Z 33008KT 08/M02 A3035 RMK A01 T00781023  RH  049%=      5-min Rain = 0
KLA1 191516Z 35009G15KT 08/M02 A3035 RMK A01 T00771022  RH  049%=      5-min Rain = 0
KLA1 191517Z 35011KT 08/M02 A3035 RMK A01 T00771023  RH  049%=      5-min Rain = 0
KLA1 191518Z 32009KT 08/M02 A3035 RMK A01 T00781022  RH  049%=      5-min Rain = 0
KLA1 191519Z 34007KT 08/M02 A3035 RMK A01 T00791021  RH  049%=      5-min Rain = 0
KLA1 191520Z 33008KT 08/M02 A3035 RMK A01 T00791020  RH  049%=      5-min Rain = 0
KLA1 191521Z 35009KT 08/M02 A3035 RMK A01 T00801022  RH  048%=      5-min Rain = 0
KLA1 191522Z 35010KT 08/M02 A3035 RMK A01 T00801023  RH  048%=      5-min Rain = 0
KLA1 191523Z 35007G12KT 08/M02 A3035 RMK A01 T00801023  RH  048%=      5-min Rain = 0
KLA1 191524Z 33007KT 08/M02 A3035 RMK A01 T00811021  RH  048%=      5-min Rain = 0
KLA1 191525Z 32006KT 08/M02 A3035 RMK A01 T00811021  RH  048%=      5-min Rain = 0
KLA1 191526Z 33006KT 08/M02 A3035 RMK A01 T00821021  RH  048%=      5-min Rain = 0
KLA1 191527Z 31008KT 08/M02 A3035 RMK A01 T00821021  RH  048%=      5-min Rain = 0
KLA1 191528Z 31007KT 08/M02 A3035 RMK A01 T00831020  RH  048%=      5-min Rain = 0
KLA1 191529Z 32006KT 08/M02 A3035 RMK A01 T00831019  RH  049%=      5-min Rain = 0
KLA1 191530Z 31010KT 08/M02 A3035 RMK A01 T00831018  RH  049%=      5-min Rain = 0
KLA1 191531Z 31010KT 08/M02 A3035 RMK A01 T00841020  RH  048%=      5-min Rain = 0
KLA1 191532Z 32008G13KT 08/M02 A3036 RMK A01 T00841018  RH  049%=      5-min Rain = 0
KLA1 191533Z 33008KT 08/M02 A3036 RMK A01 T00841020  RH  048%=      5-min Rain = 0
KLA1 191534Z 31008KT 09/M02 A3036 RMK A01 T00851021  RH  047%=      5-min Rain = 0
KLA1 191535Z 32008KT 09/M02 A3036 RMK A01 T00851020  RH  048%=      5-min Rain = 0
KLA1 191536Z 32009KT 08/M02 A3036 RMK A01 T00841021  RH  047%=      5-min Rain = 0
KLA1 191537Z 34008KT 09/M02 A3036 RMK A01 T00851020  RH  048%=      5-min Rain = 0
KLA1 191538Z 32008KT 09/M02 A3036 RMK A01 T00851021  RH  047%=      5-min Rain = 0
KLA1 191539Z 32006KT 09/M02 A3036 RMK A01 T00861023  RH  046%=      5-min Rain = 0
KLA1 191540Z 32007KT 09/M02 A3036 RMK A01 T00861021  RH  047%=      5-min Rain = 0
KLA1 191541Z 33007KT 09/M02 A3036 RMK A01 T00881021  RH  047%=      5-min Rain = 0
KLA1 191542Z 31009KT 09/M02 A3036 RMK A01 T00881023  RH  046%=      5-min Rain = 0
KLA1 191543Z 35007KT 09/M02 A3036 RMK A01 T00881021  RH  046%=      5-min Rain = 0
KLA1 191544Z 33007KT 09/M02 A3036 RMK A01 T00901021  RH  046%=      5-min Rain = 0
KLA1 191545Z 31009G14KT 09/M02 A3036 RMK A01 T00901022  RH  045%=      5-min Rain = 0
KLA1 191546Z 32010KT 09/M02 A3036 RMK A01 T00901021  RH  046%=      5-min Rain = 0
KLA1 191547Z 32009G14KT 09/M02 A3036 RMK A01 T00901022  RH  046%=      5-min Rain = 0
KLA1 191548Z 35010G15KT 09/M02 A3036 RMK A01 T00901022  RH  046%=      5-min Rain = 0
KLA1 191549Z 35014KT 09/M02 A3036 RMK A01 T00911023  RH  045%=      5-min Rain = 0
KLA1 191550Z 33008KT 09/M03 A3036 RMK A01 T00901027  RH  044%=      5-min Rain = 0
KLA1 191551Z 34005KT 09/M03 A3036 RMK A01 T00901026  RH  044%=      5-min Rain = 0
KLA1 191552Z 35007KT 09/M02 A3036 RMK A01 T00921019  RH  046%=      5-min Rain = 0
KLA1 191553Z 35008KT 10/M02 A3036 RMK A01 T00951021  RH  044%=      5-min Rain = 0
KLA1 191554Z 33008KT 10/M02 A3036 RMK A01 T00961022  RH  044%=      5-min Rain = 0
KLA1 191555Z 33007KT 10/M02 A3036 RMK A01 T00961024  RH  043%=      5-min Rain = 0
KLA1 191556Z 36011KT 10/M02 A3036 RMK A01 T00951023  RH  043%=      5-min Rain = 0
KLA1 191557Z 35012KT 09/M03 A3036 RMK A01 T00941025  RH  043%=      5-min Rain = 0
KLA1 191558Z 33007KT 09/M02 A3036 RMK A01 T00941023  RH  044%=      5-min Rain = 0
KLA1 191559Z 32005KT 10/M02 A3036 RMK A01 T00961021  RH  044%=      5-min Rain = 0
KLA1 191600Z 35006KT 10/M02 A3036 RMK A01 T00981022  RH  043%=      5-min Rain = 0
KLA1 191601Z 34006KT 10/M02 A3036 RMK A01 T00991021  RH  043%=      5-min Rain = 0
KLA1 191602Z 31010KT 10/M02 A3036 RMK A01 T01001023  RH  042%=      5-min Rain = 0
KLA1 191603Z 31011KT 10/M02 A3036 RMK A01 T00991023  RH  042%=      5-min Rain = 0
KLA1 191604Z 33011KT 10/M02 A3036 RMK A01 T00981023  RH  042%=      5-min Rain = 0
KLA1 191605Z 34008KT 10/M02 A3036 RMK A01 T00971024  RH  042%=      5-min Rain = 0
KLA1 191606Z 32007KT 10/M02 A3036 RMK A01 T00971024  RH  043%=      5-min Rain = 0
KLA1 191607Z 31008KT 10/M03 A3036 RMK A01 T00981025  RH  042%=      5-min Rain = 0
KLA1 191608Z 33010G15KT 10/M02 A3036 RMK A01 T00981024  RH  042%=      5-min Rain = 0
KLA1 191609Z 35008KT 10/M02 A3036 RMK A01 T00981023  RH  043%=      5-min Rain = 0
KLA1 191610Z 31006G11KT 10/M02 A3036 RMK A01 T00991020  RH  043%=      5-min Rain = 0
KLA1 191611Z 30011KT 10/M02 A3036 RMK A01 T01011016  RH  044%=      5-min Rain = 0
KLA1 191612Z 30008KT 10/M02 A3036 RMK A01 T01001017  RH  044%=      5-min Rain = 0
KLA1 191613Z 31013KT 10/M02 A3036 RMK A01 T01001015  RH  045%=      5-min Rain = 0
KLA1 191614Z 31012G17KT 10/M02 A3036 RMK A01 T00991019  RH  044%=      5-min Rain = 0
KLA1 191615Z 31012KT 10/M02 A3036 RMK A01 T00971021  RH  044%=      5-min Rain = 0
KLA1 191616Z 30014KT 10/M02 A3036 RMK A01 T00951021  RH  044%=      5-min Rain = 0
KLA1 191617Z 30014KT 10/M02 A3036 RMK A01 T00951021  RH  044%=      5-min Rain = 0
KLA1 191618Z 31013KT 10/M02 A3037 RMK A01 T00951020  RH  044%=      5-min Rain = 0
KLA1 191619Z 31007KT 10/M02 A3037 RMK A01 T00951021  RH  044%=      5-min Rain = 0
KLA1 191620Z 31009KT 10/M02 A3037 RMK A01 T00971018  RH  045%=      5-min Rain = 0
KLA1 191621Z 31013KT 10/M02 A3036 RMK A01 T00981019  RH  044%=      5-min Rain = 0
KLA1 191622Z 31013KT 10/M02 A3036 RMK A01 T00981019  RH  044%=      5-min Rain = 0
KLA1 191623Z 32010KT 10/M02 A3037 RMK A01 T00981019  RH  044%=      5-min Rain = 0
KLA1 191624Z 32008KT 10/M02 A3037 RMK A01 T00991022  RH  043%=      5-min Rain = 0
KLA1 191625Z 34010KT 10/M02 A3037 RMK A01 T00991020  RH  043%=      5-min Rain = 0
KLA1 191626Z 32009KT 10/M02 A3037 RMK A01 T00991022  RH  043%=      5-min Rain = 0
KLA1 191627Z 35008KT 10/M02 A3037 RMK A01 T00991022  RH  043%=      5-min Rain = 0
KLA1 191628Z 32009KT 10/M02 A3037 RMK A01 T01001021  RH  043%=      5-min Rain = 0
KLA1 191629Z 33008KT 10/M02 A3037 RMK A01 T01001020  RH  043%=      5-min Rain = 0
KLA1 191630Z 31009KT 10/M02 A3037 RMK A01 T01021018  RH  043%=      5-min Rain = 0
KLA1 191631Z 32007KT 10/M02 A3037 RMK A01 T01031018  RH  043%=      5-min Rain = 0
KLA1 191632Z 31011KT 10/M02 A3037 RMK A01 T01041019  RH  042%=      5-min Rain = 0
KLA1 191633Z 32011KT 10/M02 A3037 RMK A01 T01041018  RH  043%=      5-min Rain = 0
KLA1 191634Z 35009KT 10/M02 A3037 RMK A01 T01031020  RH  042%=      5-min Rain = 0
KLA1 191635Z 34007KT 10/M02 A3037 RMK A01 T01021016  RH  044%=      5-min Rain = 0
KLA1 191636Z 32010KT 10/M02 A3037 RMK A01 T01041017  RH  043%=      5-min Rain = 0
KLA1 191637Z 31012KT 10/M02 A3037 RMK A01 T01031017  RH  043%=      5-min Rain = 0
KLA1 191638Z 32008KT 10/M02 A3036 RMK A01 T01021019  RH  043%=      5-min Rain = 0
KLA1 191639Z 30009KT 10/M02 A3036 RMK A01 T01011017  RH  044%=      5-min Rain = 0
KLA1 191640Z 30011KT 10/M02 A3036 RMK A01 T01031016  RH  044%=      5-min Rain = 0
KLA1 191641Z 31012KT 10/M02 A3037 RMK A01 T01031018  RH  043%=      5-min Rain = 0
KLA1 191642Z 30010KT 10/M02 A3037 RMK A01 T01011016  RH  044%=      5-min Rain = 0
KLA1 191643Z 31011KT 10/M02 A3036 RMK A01 T01021017  RH  043%=      5-min Rain = 0
KLA1 191644Z 32010KT 10/M02 A3036 RMK A01 T01011019  RH  043%=      5-min Rain = 0
KLA1 191645Z 33009G14KT 10/M02 A3036 RMK A01 T01021018  RH  043%=      5-min Rain = 0
KLA1 191646Z 32010KT 10/M02 A3036 RMK A01 T01031019  RH  042%=      5-min Rain = 0
KLA1 191647Z 33009KT 10/M02 A3036 RMK A01 T01041020  RH  042%=      5-min Rain = 0
KLA1 191648Z 00012KT 11/M02 A3036 RMK A01 T01051018  RH  042%=      5-min Rain = 0
KLA1 191649Z 35013G18KT 11/M02 A3036 RMK A01 T01051019  RH  042%=      5-min Rain = 0
KLA1 191650Z 35011KT 11/M02 A3036 RMK A01 T01051019  RH  042%=      5-min Rain = 0
KLA1 191651Z 33009G14KT 11/M02 A3037 RMK A01 T01051019  RH  042%=      5-min Rain = 0
KLA1 191652Z 33007KT 11/M02 A3037 RMK A01 T01071015  RH  043%=      5-min Rain = 0
KLA1 191653Z 34008G15KT 11/M02 A3037 RMK A01 T01091015  RH  042%=      5-min Rain = 0
KLA1 191654Z 33010KT 11/M02 A3037 RMK A01 T01111018  RH  041%=      5-min Rain = 0
KLA1 191655Z 34011G17KT 11/M02 A3037 RMK A01 T01101019  RH  041%=      5-min Rain = 0
KLA1 191656Z 33012KT 11/M02 A3037 RMK A01 T01101021  RH  040%=      5-min Rain = 0
KLA1 191657Z 34010KT 11/M02 A3037 RMK A01 T01091022  RH  040%=      5-min Rain = 0
KLA1 191658Z 35010G15KT 11/M02 A3037 RMK A01 T01091021  RH  040%=      5-min Rain = 0
KLA1 191659Z 34012KT 11/M02 A3037 RMK A01 T01091024  RH  039%=      5-min Rain = 0
KLA1 191700Z 35012KT 11/M02 A3037 RMK A01 T01081023  RH  040%=      5-min Rain = 0
KLA1 191701Z 34011KT 11/M02 A3037 RMK A01 T01081022  RH  040%=      5-min Rain = 0
KLA1 191702Z 35011G17KT 11/M02 A3037 RMK A01 T01091022  RH  040%=      5-min Rain = 0
KLA1 191703Z 35011G16KT 11/M02 A3037 RMK A01 T01091020  RH  041%=      5-min Rain = 0
KLA1 191704Z 35014KT 11/M02 A3037 RMK A01 T01101022  RH  040%=      5-min Rain = 0
KLA1 191705Z 34011KT 11/M02 A3037 RMK A01 T01091022  RH  040%=      5-min Rain = 0
KLA1 191706Z 00012KT 11/M02 A3037 RMK A01 T01091021  RH  040%=      5-min Rain = 0
KLA1 191707Z 34007KT 11/M02 A3037 RMK A01 T01101019  RH  041%=      5-min Rain = 0
KLA1 191708Z 32011KT 11/M02 A3037 RMK A01 T01111018  RH  040%=      5-min Rain = 0
KLA1 191709Z 32011G16KT 11/M02 A3037 RMK A01 T01111022  RH  039%=      5-min Rain = 0
KLA1 191710Z 32011KT 11/M02 A3037 RMK A01 T01111020  RH  040%=      5-min Rain = 0
KLA1 191711Z 32010KT 11/M02 A3037 RMK A01 T01111022  RH  040%=      5-min Rain = 0
KLA1 191712Z 35011KT 11/M02 A3037 RMK A01 T01111019  RH  040%=      5-min Rain = 0
KLA1 191713Z 00012KT 11/M02 A3037 RMK A01 T01111023  RH  039%=      5-min Rain = 0
KLA1 191714Z 36009KT 11/M02 A3037 RMK A01 T01091024  RH  039%=      5-min Rain = 0
KLA1 191715Z 35010KT 11/M02 A3037 RMK A01 T01091021  RH  040%=      5-min Rain = 0
KLA1 191716Z 35013KT 11/M02 A3037 RMK A01 T01101019  RH  040%=      5-min Rain = 0
KLA1 191717Z 36009G14KT 11/M02 A3037 RMK A01 T01101022  RH  039%=      5-min Rain = 0
KLA1 191718Z 00010KT 11/M02 A3037 RMK A01 T01101020  RH  040%=      5-min Rain = 0
KLA1 191719Z 34010KT 11/M02 A3037 RMK A01 T01111017  RH  041%=      5-min Rain = 0
KLA1 191720Z 35008KT 11/M02 A3037 RMK A01 T01121019  RH  040%=      5-min Rain = 0
KLA1 191721Z 35009KT 11/M02 A3037 RMK A01 T01121019  RH  040%=      5-min Rain = 0
KLA1 191722Z 32006KT 11/M02 A3037 RMK A01 T01121018  RH  040%=      5-min Rain = 0
KLA1 191723Z 36007KT 11/M02 A3037 RMK A01 T01131016  RH  041%=      5-min Rain = 0
KLA1 191724Z 00008G14KT 11/M02 A3037 RMK A01 T01141015  RH  041%=      5-min Rain = 0
KLA1 191725Z 36012KT 12/M02 A3037 RMK A01 T01161016  RH  040%=      5-min Rain = 0
KLA1 191726Z 00009KT 12/M02 A3037 RMK A01 T01151019  RH  039%=      5-min Rain = 0
KLA1 191727Z 35010KT 12/M02 A3037 RMK A01 T01161016  RH  040%=      5-min Rain = 0
KLA1 191728Z 35013KT 12/M02 A3037 RMK A01 T01161021  RH  038%=      5-min Rain = 0
KLA1 191729Z 34012KT 12/M02 A3037 RMK A01 T01151021  RH  039%=      5-min Rain = 0
KLA1 191730Z 35007G12KT 11/M02 A3037 RMK A01 T01141022  RH  039%=      5-min Rain = 0
KLA1 191731Z 34006KT 11/M02 A3037 RMK A01 T01141018  RH  040%=      5-min Rain = 0
KLA1 191732Z 33005KT 12/M02 A3037 RMK A01 T01161017  RH  040%=      5-min Rain = 0
KLA1 191733Z 35010G15KT 12/M01 A3037 RMK A01 T01181014  RH  040%=      5-min Rain = 0
KLA1 191734Z 35009G14KT 12/M02 A3037 RMK A01 T01191017  RH  039%=      5-min Rain = 0
KLA1 191735Z 35011KT 12/M02 A3037 RMK A01 T01191017  RH  039%=      5-min Rain = 0
KLA1 191736Z 36011KT 12/M02 A3037 RMK A01 T01191018  RH  039%=      5-min Rain = 0
KLA1 191737Z 35012KT 12/M02 A3037 RMK A01 T01191020  RH  038%=      5-min Rain = 0
KLA1 191738Z 35012KT 12/M02 A3037 RMK A01 T01191021  RH  038%=      5-min Rain = 0
KLA1 191739Z 34009KT 12/M02 A3037 RMK A01 T01181021  RH  038%=      5-min Rain = 0
KLA1 191740Z 35011G16KT 12/M02 A3037 RMK A01 T01181020  RH  038%=      5-min Rain = 0
KLA1 191741Z 35012KT 12/M02 A3037 RMK A01 T01191022  RH  038%=      5-min Rain = 0
KLA1 191742Z 35011KT 12/M02 A3037 RMK A01 T01191020  RH  038%=      5-min Rain = 0
KLA1 191743Z 00011G17KT 12/M02 A3037 RMK A01 T01201022  RH  037%=      5-min Rain = 0
KLA1 191744Z 36012KT 12/M02 A3036 RMK A01 T01201021  RH  037%=      5-min Rain = 0
KLA1 191745Z 36010KT 12/M02 A3036 RMK A01 T01201020  RH  038%=      5-min Rain = 0
KLA1 191746Z 35011KT 12/M02 A3036 RMK A01 T01211018  RH  038%=      5-min Rain = 0
KLA1 191747Z 35011KT 12/M02 A3036 RMK A01 T01221021  RH  037%=      5-min Rain = 0
KLA1 191748Z 36010KT 12/M02 A3036 RMK A01 T01211022  RH  037%=      5-min Rain = 0
KLA1 191749Z 33007KT 12/M02 A3036 RMK A01 T01201020  RH  038%=      5-min Rain = 0
KLA1 191750Z 33007KT 12/M02 A3036 RMK A01 T01221015  RH  038%=      5-min Rain = 0
KLA1 191751Z 32011KT 13/M02 A3036 RMK A01 T01251016  RH  037%=      5-min Rain = 0
KLA1 191752Z 31009KT 13/M02 A3036 RMK A01 T01261019  RH  036%=      5-min Rain = 0
KLA1 191753Z 32009G15KT 13/M02 A3036 RMK A01 T01271017  RH  037%=      5-min Rain = 0
KLA1 191754Z 35010KT 13/M01 A3036 RMK A01 T01291014  RH  037%=      5-min Rain = 0
KLA1 191755Z 36009KT 13/M02 A3036 RMK A01 T01281020  RH  036%=      5-min Rain = 0
KLA1 191756Z 33008KT 13/M02 A3036 RMK A01 T01261020  RH  036%=      5-min Rain = 0
KLA1 191757Z 31012KT 13/M02 A3036 RMK A01 T01261017  RH  037%=      5-min Rain = 0
KLA1 191758Z 32010G15KT 13/M02 A3036 RMK A01 T01271020  RH  036%=      5-min Rain = 0
KLA1 191759Z 31011KT 13/M02 A3036 RMK A01 T01261020  RH  036%=      5-min Rain = 0
KLA1 191800Z 31010KT 13/M02 A3036 RMK A01 T01251021  RH  036%=      5-min Rain = 0
KLA1 191801Z 31012KT 12/M02 A3036 RMK A01 T01241018  RH  037%=      5-min Rain = 0
KLA1 191802Z 32011KT 13/M02 A3036 RMK A01 T01251018  RH  037%=      5-min Rain = 0
KLA1 191803Z 35007KT 13/M02 A3036 RMK A01 T01261018  RH  037%=      5-min Rain = 0
KLA1 191804Z 35010KT 13/M02 A3036 RMK A01 T01271017  RH  037%=      5-min Rain = 0
KLA1 191805Z 34009KT 13/M02 A3036 RMK A01 T01281020  RH  036%=      5-min Rain = 0
KLA1 191806Z 34007KT 13/M02 A3036 RMK A01 T01271021  RH  036%=      5-min Rain = 0
KLA1 191807Z 33007KT 13/M02 A3036 RMK A01 T01271018  RH  036%=      5-min Rain = 0
KLA1 191808Z 33008G13KT 13/M02 A3036 RMK A01 T01291015  RH  037%=      5-min Rain = 0
KLA1 191809Z 32010G15KT 13/M02 A3036 RMK A01 T01321015  RH  036%=      5-min Rain = 0
KLA1 191810Z 31013G19KT 13/M02 A3036 RMK A01 T01321018  RH  035%=      5-min Rain = 0
KLA1 191811Z 32011KT 13/M02 A3036 RMK A01 T01311019  RH  035%=      5-min Rain = 0
KLA1 191812Z 34011KT 13/M02 A3036 RMK A01 T01301020  RH  035%=      5-min Rain = 0
KLA1 191813Z 35009KT 13/M02 A3036 RMK A01 T01291022  RH  035%=      5-min Rain = 0
KLA1 191814Z 35010KT 13/M02 A3036 RMK A01 T01281022  RH  035%=      5-min Rain = 0
KLA1 191815Z 35010KT 13/M02 A3036 RMK A01 T01271021  RH  036%=      5-min Rain = 0
KLA1 191816Z 35012KT 13/M02 A3036 RMK A01 T01271023  RH  035%=      5-min Rain = 0
KLA1 191817Z 34009KT 13/M02 A3036 RMK A01 T01271021  RH  036%=      5-min Rain = 0
KLA1 191818Z 33010KT 13/M02 A3036 RMK A01 T01301018  RH  036%=      5-min Rain = 0
KLA1 191819Z 36009KT 13/M02 A3036 RMK A01 T01321018  RH  035%=      5-min Rain = 0
KLA1 191820Z 35010KT 13/M02 A3036 RMK A01 T01331017  RH  035%=      5-min Rain = 0
KLA1 191821Z 00010KT 13/M02 A3036 RMK A01 T01331020  RH  035%=      5-min Rain = 0
KLA1 191822Z 35012KT 13/M02 A3036 RMK A01 T01321022  RH  034%=      5-min Rain = 0
KLA1 191823Z 35013KT 13/M02 A3035 RMK A01 T01311022  RH  035%=      5-min Rain = 0
KLA1 191824Z 34008KT 13/M02 A3035 RMK A01 T01311020  RH  035%=      5-min Rain = 0
KLA1 191825Z 36008G13KT 13/M02 A3035 RMK A01 T01321015  RH  036%=      5-min Rain = 0
KLA1 191826Z 36009KT 13/M02 A3035 RMK A01 T01341020  RH  034%=      5-min Rain = 0
KLA1 191827Z 01011KT 13/M02 A3035 RMK A01 T01331018  RH  035%=      5-min Rain = 0
KLA1 191828Z 36011KT 13/M02 A3035 RMK A01 T01331019  RH  035%=      5-min Rain = 0
KLA1 191829Z 00009KT 13/M02 A3035 RMK A01 T01321022  RH  034%=      5-min Rain = 0
KLA1 191830Z 35010G15KT 13/M02 A3035 RMK A01 T01311021  RH  035%=      5-min Rain = 0
KLA1 191831Z 35010G15KT 13/M02 A3035 RMK A01 T01311021  RH  035%=      5-min Rain = 0
KLA1 191832Z 36011KT 13/M02 A3035 RMK A01 T01321017  RH  035%=      5-min Rain = 0
KLA1 191833Z 36009KT 13/M02 A3035 RMK A01 T01341019  RH  035%=      5-min Rain = 0
KLA1 191834Z 35009KT 13/M02 A3035 RMK A01 T01341020  RH  034%=      5-min Rain = 0
KLA1 191835Z 35008G15KT 13/M02 A3035 RMK A01 T01341020  RH  034%=      5-min Rain = 0
KLA1 191836Z 36012KT 13/M02 A3035 RMK A01 T01341019  RH  035%=      5-min Rain = 0
KLA1 191837Z 36012KT 13/M02 A3035 RMK A01 T01341020  RH  034%=      5-min Rain = 0
KLA1 191838Z 35011KT 13/M02 A3035 RMK A01 T01331021  RH  034%=      5-min Rain = 0
KLA1 191839Z 34010KT 13/M02 A3035 RMK A01 T01331022  RH  034%=      5-min Rain = 0
KLA1 191840Z 34009KT 13/M02 A3035 RMK A01 T01341018  RH  035%=      5-min Rain = 0
KLA1 191841Z 35011KT 14/M02 A3035 RMK A01 T01351019  RH  034%=      5-min Rain = 0
KLA1 191842Z 34009KT 14/M02 A3035 RMK A01 T01361019  RH  034%=      5-min Rain = 0
KLA1 191843Z 35010KT 14/M02 A3035 RMK A01 T01371017  RH  034%=      5-min Rain = 0
KLA1 191844Z 32010KT 14/M02 A3035 RMK A01 T01371021  RH  033%=      5-min Rain = 0
KLA1 191845Z 33008G13KT 14/M02 A3034 RMK A01 T01361022  RH  034%=      5-min Rain = 0
KLA1 191846Z 35012G17KT 14/M02 A3034 RMK A01 T01351019  RH  034%=      5-min Rain = 0
KLA1 191847Z 35009KT 14/M02 A3034 RMK A01 T01351020  RH  034%=      5-min Rain = 0
KLA1 191848Z 31010KT 14/M02 A3034 RMK A01 T01351020  RH  034%=      5-min Rain = 0
KLA1 191849Z 35010KT 14/M02 A3034 RMK A01 T01351020  RH  034%=      5-min Rain = 0
KLA1 191850Z 35010KT 14/M02 A3034 RMK A01 T01351021  RH  034%=      5-min Rain = 0
KLA1 191851Z 36010KT 14/M02 A3034 RMK A01 T01351018  RH  035%=      5-min Rain = 0
KLA1 191852Z 35009KT 14/M02 A3034 RMK A01 T01361018  RH  034%=      5-min Rain = 0
KLA1 191853Z 35008KT 14/M02 A3034 RMK A01 T01371017  RH  034%=      5-min Rain = 0
KLA1 191854Z 33008G13KT 14/M02 A3034 RMK A01 T01391015  RH  035%=      5-min Rain = 0
KLA1 191855Z 33008G15KT 14/M01 A3034 RMK A01 T01411014  RH  034%=      5-min Rain = 0
KLA1 191856Z 33006KT 14/M01 A3034 RMK A01 T01421012  RH  034%=      5-min Rain = 0
KLA1 191857Z 35008KT 14/M01 A3034 RMK A01 T01441014  RH  034%=      5-min Rain = 0
KLA1 191858Z 01011G17KT 14/M02 A3034 RMK A01 T01441015  RH  033%=      5-min Rain = 0
KLA1 191859Z 36010KT 14/M02 A3034 RMK A01 T01431016  RH  033%=      5-min Rain = 0
KLA1 191900Z 36011KT 14/M02 A3033 RMK A01 T01421019  RH  033%=      5-min Rain = 0
KLA1 191901Z 36011KT 14/M02 A3033 RMK A01 T01401019  RH  033%=      5-min Rain = 0
KLA1 191902Z 00012KT 14/M02 A3033 RMK A01 T01401018  RH  033%=      5-min Rain = 0
KLA1 191903Z 35012KT 14/M02 A3033 RMK A01 T01381023  RH  033%=      5-min Rain = 0
KLA1 191904Z 01014G19KT 14/M02 A3033 RMK A01 T01371019  RH  034%=      5-min Rain = 0
KLA1 191905Z 35010G15KT 14/M02 A3033 RMK A01 T01371019  RH  034%=      5-min Rain = 0
KLA1 191906Z 34008KT 14/M02 A3033 RMK A01 T01381020  RH  033%=      5-min Rain = 0
KLA1 191907Z 36011KT 14/M02 A3033 RMK A01 T01381021  RH  033%=      5-min Rain = 0
KLA1 191908Z 35011KT 14/M02 A3033 RMK A01 T01381021  RH  033%=      5-min Rain = 0
KLA1 191909Z 35013KT 14/M02 A3033 RMK A01 T01391017  RH  034%=      5-min Rain = 0
KLA1 191910Z 32009KT 14/M02 A3033 RMK A01 T01401019  RH  033%=      5-min Rain = 0
KLA1 191911Z 32009KT 14/M02 A3033 RMK A01 T01411019  RH  033%=      5-min Rain = 0
KLA1 191912Z 32008KT 14/M02 A3032 RMK A01 T01421018  RH  033%=      5-min Rain = 0
KLA1 191913Z 35006KT 15/M01 A3032 RMK A01 T01451009  RH  035%=      5-min Rain = 0
KLA1 191914Z 36007KT 15/M02 A3032 RMK A01 T01461016  RH  033%=      5-min Rain = 0
KLA1 191915Z 34006KT 15/M02 A3032 RMK A01 T01451017  RH  033%=      5-min Rain = 0
KLA1 191916Z 32011G17KT 15/M02 A3032 RMK A01 T01451015  RH  033%=      5-min Rain = 0
KLA1 191917Z 31014KT 15/M02 A3032 RMK A01 T01451021  RH  032%=      5-min Rain = 0
KLA1 191918Z 32011KT 14/M02 A3032 RMK A01 T01431020  RH  032%=      5-min Rain = 0
KLA1 191919Z 33015G20KT 14/M02 A3032 RMK A01 T01441018  RH  033%=      5-min Rain = 0
KLA1 191920Z 32013KT 15/M02 A3032 RMK A01 T01451021  RH  032%=      5-min Rain = 0
KLA1 191921Z 31012KT 14/M02 A3032 RMK A01 T01441023  RH  031%=      5-min Rain = 0
KLA1 191922Z 32007KT 14/M02 A3032 RMK A01 T01431022  RH  032%=      5-min Rain = 0
KLA1 191923Z 32010KT 14/M02 A3032 RMK A01 T01431019  RH  033%=      5-min Rain = 0
KLA1 191924Z 34011KT 14/M02 A3032 RMK A01 T01441020  RH  032%=      5-min Rain = 0
KLA1 191925Z 35009KT 15/M02 A3032 RMK A01 T01451021  RH  032%=      5-min Rain = 0
KLA1 191926Z 35012KT 15/M02 A3032 RMK A01 T01451019  RH  032%=      5-min Rain = 0
KLA1 191927Z 34011KT 14/M02 A3032 RMK A01 T01441021  RH  032%=      5-min Rain = 0
KLA1 191928Z 35013KT 15/M02 A3032 RMK A01 T01451019  RH  032%=      5-min Rain = 0
KLA1 191929Z 35013KT 15/M02 A3031 RMK A01 T01451022  RH  032%=      5-min Rain = 0
KLA1 191930Z 36013KT 15/M02 A3031 RMK A01 T01451019  RH  032%=      5-min Rain = 0
KLA1 191931Z 35011G16KT 15/M02 A3031 RMK A01 T01451019  RH  032%=      5-min Rain = 0
KLA1 191932Z 36014KT 15/M02 A3031 RMK A01 T01451019  RH  032%=      5-min Rain = 0
KLA1 191933Z 36014KT 15/M02 A3031 RMK A01 T01451019  RH  032%=      5-min Rain = 0
KLA1 191934Z 35012KT 15/M02 A3031 RMK A01 T01451018  RH  032%=      5-min Rain = 0
KLA1 191935Z 35008KT 15/M02 A3031 RMK A01 T01461020  RH  032%=      5-min Rain = 0
KLA1 191936Z 35007KT 15/M02 A3031 RMK A01 T01461017  RH  033%=      5-min Rain = 0
KLA1 191937Z 35008KT 15/M01 A3031 RMK A01 T01481014  RH  033%=      5-min Rain = 0
KLA1 191938Z 01006KT 15/M02 A303 RMK A01 T01491015  RH  032%=      5-min Rain = 0
KLA1 191939Z 36013KT 15/M01 A303 RMK A01 T01501014  RH  032%=      5-min Rain = 0
KLA1 191940Z 35011KT 15/M02 A303 RMK A01 T01491018  RH  032%=      5-min Rain = 0
KLA1 191941Z 35012KT 15/M02 A303 RMK A01 T01471016  RH  032%=      5-min Rain = 0
KLA1 191942Z 36014KT 15/M02 A303 RMK A01 T01471018  RH  032%=      5-min Rain = 0
KLA1 191943Z 35012KT 15/M02 A303 RMK A01 T01461019  RH  032%=      5-min Rain = 0
KLA1 191944Z 35009KT 15/M02 A303 RMK A01 T01451020  RH  032%=      5-min Rain = 0
KLA1 191945Z 34008KT 15/M02 A303 RMK A01 T01451020  RH  032%=      5-min Rain = 0
KLA1 191946Z 35011G16KT 15/M02 A303 RMK A01 T01451017  RH  033%=      5-min Rain = 0
KLA1 191947Z 35011KT 15/M02 A303 RMK A01 T01461016  RH  033%=      5-min Rain = 0
KLA1 191948Z 35012KT 15/M02 A303 RMK A01 T01481017  RH  032%=      5-min Rain = 0
KLA1 191949Z 35009KT 15/M02 A303 RMK A01 T01491017  RH  032%=      5-min Rain = 0
KLA1 191950Z 00011KT 15/M02 A303 RMK A01 T01501016  RH  032%=      5-min Rain = 0
KLA1 191951Z 35014KT 15/M02 A303 RMK A01 T01511016  RH  032%=      5-min Rain = 0
KLA1 191952Z 35010KT 15/M02 A303 RMK A01 T01491021  RH  031%=      5-min Rain = 0
KLA1 191953Z 34009KT 15/M02 A303 RMK A01 T01471023  RH  031%=      5-min Rain = 0
KLA1 191954Z 34009G14KT 15/M02 A303 RMK A01 T01471020  RH  032%=      5-min Rain = 0
KLA1 191955Z 34009G14KT 15/M02 A303 RMK A01 T01471021  RH  031%=      5-min Rain = 0
KLA1 191956Z 35009KT 15/M02 A3029 RMK A01 T01471018  RH  032%=      5-min Rain = 0
KLA1 191957Z 34009G14KT 15/M02 A3029 RMK A01 T01471018  RH  032%=      5-min Rain = 0
KLA1 191958Z 32009G15KT 15/M01 A3029 RMK A01 T01491013  RH  033%=      5-min Rain = 0
KLA1 191959Z 33011KT 15/M02 A3029 RMK A01 T01511017  RH  031%=      5-min Rain = 0
KLA1 192000Z 35012KT 15/M02 A3029 RMK A01 T01501019  RH  031%=      5-min Rain = 0
KLA1 192001Z 36012KT 15/M02 A3029 RMK A01 T01481018  RH  032%=      5-min Rain = 0
KLA1 192002Z 35013KT 15/M02 A3029 RMK A01 T01481015  RH  032%=      5-min Rain = 0
KLA1 192003Z 36012KT 15/M02 A3029 RMK A01 T01491017  RH  032%=      5-min Rain = 0
KLA1 192004Z 34008G13KT 15/M02 A3029 RMK A01 T01491017  RH  032%=      5-min Rain = 0
KLA1 192005Z 01008KT 15/M02 A3029 RMK A01 T01491016  RH  032%=      5-min Rain = 0
KLA1 192006Z 35007KT 15/M02 A3029 RMK A01 T01491015  RH  032%=      5-min Rain = 0
KLA1 192007Z 32008KT 15/M02 A3029 RMK A01 T01491017  RH  032%=      5-min Rain = 0
KLA1 192008Z 32008KT 15/M02 A3029 RMK A01 T01491016  RH  032%=      5-min Rain = 0
KLA1 192009Z 33007KT 15/M02 A3029 RMK A01 T01491019  RH  031%=      5-min Rain = 0
KLA1 192010Z 31008KT 15/M02 A3029 RMK A01 T01511015  RH  032%=      5-min Rain = 0
KLA1 192011Z 31012KT 15/M02 A3029 RMK A01 T01521015  RH  032%=      5-min Rain = 0
KLA1 192012Z 31011KT 15/M02 A3029 RMK A01 T01521017  RH  031%=      5-min Rain = 0
KLA1 192013Z 33009G14KT 15/M02 A3029 RMK A01 T01511015  RH  032%=      5-min Rain = 0
KLA1 192014Z 35008G13KT 15/M02 A3029 RMK A01 T01511017  RH  031%=      5-min Rain = 0
KLA1 192015Z 36008KT 15/M02 A3029 RMK A01 T01511016  RH  032%=      5-min Rain = 0
KLA1 192016Z 35007G13KT 15/M02 A3029 RMK A01 T01511015  RH  032%=      5-min Rain = 0
KLA1 192017Z 34010KT 15/M02 A3029 RMK A01 T01511017  RH  032%=      5-min Rain = 0
KLA1 192018Z 33007KT 15/M02 A3029 RMK A01 T01501017  RH  032%=      5-min Rain = 0
KLA1 192019Z 32008KT 15/M02 A3029 RMK A01 T01511015  RH  032%=      5-min Rain = 0
KLA1 192020Z 31013G18KT 15/M02 A3029 RMK A01 T01521019  RH  031%=      5-min Rain = 0
KLA1 192021Z 31012G17KT 15/M02 A3029 RMK A01 T01511018  RH  031%=      5-min Rain = 0
KLA1 192022Z 32013KT 15/M02 A3029 RMK A01 T01511016  RH  032%=      5-min Rain = 0
KLA1 192023Z 33010KT 15/M02 A3029 RMK A01 T01511019  RH  031%=      5-min Rain = 0
KLA1 192024Z 33008KT 15/M02 A3029 RMK A01 T01511016  RH  032%=      5-min Rain = 0
KLA1 192025Z 32007KT 15/M02 A3029 RMK A01 T01521015  RH  032%=      5-min Rain = 0
KLA1 192026Z 33008KT 15/M01 A3029 RMK A01 T01541014  RH  032%=      5-min Rain = 0
KLA1 192027Z 32011KT 16/M02 A3029 RMK A01 T01561018  RH  030%=      5-min Rain = 0
KLA1 192028Z 33010KT 16/M02 A3029 RMK A01 T01551020  RH  030%=      5-min Rain = 0
KLA1 192029Z 32012G17KT 15/M02 A3029 RMK A01 T01531021  RH  030%=      5-min Rain = 0
KLA1 192030Z 32013KT 15/M02 A3029 RMK A01 T01531020  RH  030%=      5-min Rain = 0
KLA1 192031Z 30012KT 15/M02 A3029 RMK A01 T01531019  RH  031%=      5-min Rain = 0
KLA1 192032Z 31010KT 15/M02 A3028 RMK A01 T01531016  RH  031%=      5-min Rain = 0
KLA1 192033Z 31014KT 15/M02 A3028 RMK A01 T01531015  RH  031%=      5-min Rain = 0
KLA1 192034Z 31012KT 15/M02 A3029 RMK A01 T01541017  RH  031%=      5-min Rain = 0
KLA1 192035Z 31012KT 15/M02 A3028 RMK A01 T01541018  RH  031%=      5-min Rain = 0
KLA1 192036Z 32010KT 15/M02 A3028 RMK A01 T01531019  RH  031%=      5-min Rain = 0
KLA1 192037Z 32010G15KT 15/M02 A3028 RMK A01 T01531017  RH  031%=      5-min Rain = 0
KLA1 192038Z 32011KT 15/M02 A3028 RMK A01 T01541018  RH  031%=      5-min Rain = 0
KLA1 192039Z 31011KT 15/M02 A3028 RMK A01 T01541021  RH  030%=      5-min Rain = 0
KLA1 192040Z 31009KT 15/M02 A3028 RMK A01 T01531018  RH  031%=      5-min Rain = 0
KLA1 192041Z 35011KT 15/M02 A3028 RMK A01 T01541016  RH  031%=      5-min Rain = 0
KLA1 192042Z 36012KT 16/M02 A3028 RMK A01 T01561019  RH  030%=      5-min Rain = 0
KLA1 192043Z 00013KT 15/M02 A3028 RMK A01 T01541019  RH  030%=      5-min Rain = 0
KLA1 192044Z 00012KT 15/M02 A3028 RMK A01 T01531020  RH  030%=      5-min Rain = 0
KLA1 192045Z 36012KT 15/M02 A3028 RMK A01 T01531022  RH  030%=      5-min Rain = 0
KLA1 192046Z 00012G17KT 15/M02 A3028 RMK A01 T01511023  RH  030%=      5-min Rain = 0
KLA1 192047Z 00013KT 15/M02 A3028 RMK A01 T01511021  RH  030%=      5-min Rain = 0
KLA1 192048Z 36009KT 15/M02 A3028 RMK A01 T01511023  RH  030%=      5-min Rain = 0
KLA1 192049Z 35007KT 15/M02 A3028 RMK A01 T01511022  RH  030%=      5-min Rain = 0
KLA1 192050Z 32009KT 15/M02 A3028 RMK A01 T01521019  RH  031%=      5-min Rain = 0
KLA1 192051Z 31008KT 15/M02 A3028 RMK A01 T01531018  RH  031%=      5-min Rain = 0
KLA1 192052Z 34008KT 16/M01 A3028 RMK A01 T01551013  RH  032%=      5-min Rain = 0
KLA1 192053Z 34008KT 16/M02 A3027 RMK A01 T01571015  RH  031%=      5-min Rain = 0
KLA1 192054Z 34007KT 16/M01 A3027 RMK A01 T01581014  RH  031%=      5-min Rain = 0
KLA1 192055Z 35012G17KT 16/M02 A3027 RMK A01 T01601017  RH  030%=      5-min Rain = 0
KLA1 192056Z 36012KT 16/M02 A3027 RMK A01 T01581019  RH  030%=      5-min Rain = 0
KLA1 192057Z 36013KT 16/M02 A3027 RMK A01 T01571020  RH  030%=      5-min Rain = 0
KLA1 192058Z 35010KT 16/M02 A3027 RMK A01 T01551023  RH  029%=      5-min Rain = 0
KLA1 192059Z 33009G14KT 15/M02 A3027 RMK A01 T01541017  RH  031%=      5-min Rain = 0
KLA1 192100Z 36011KT 16/M02 A3027 RMK A01 T01561018  RH  030%=      5-min Rain = 0
KLA1 192101Z 36010KT 16/M02 A3027 RMK A01 T01551023  RH  029%=      5-min Rain = 0
KLA1 192102Z 00011G16KT 15/M02 A3027 RMK A01 T01541020  RH  030%=      5-min Rain = 0
KLA1 192103Z 35013KT 15/M02 A3027 RMK A01 T01541019  RH  030%=      5-min Rain = 0
KLA1 192104Z 35009KT 15/M02 A3028 RMK A01 T01541020  RH  030%=      5-min Rain = 0
KLA1 192105Z 35010KT 16/M02 A3028 RMK A01 T01551015  RH  031%=      5-min Rain = 0
KLA1 192106Z 36009KT 16/M02 A3028 RMK A01 T01571016  RH  031%=      5-min Rain = 0
KLA1 192107Z 35008KT 16/M02 A3028 RMK A01 T01571016  RH  031%=      5-min Rain = 0
KLA1 192108Z 34008KT 16/M02 A3028 RMK A01 T01571019  RH  030%=      5-min Rain = 0
KLA1 192109Z 32010KT 16/M02 A3028 RMK A01 T01561020  RH  030%=      5-min Rain = 0
KLA1 192110Z 32010G15KT 16/M02 A3028 RMK A01 T01561018  RH  030%=      5-min Rain = 0
KLA1 192111Z 31014KT 16/M02 A3028 RMK A01 T01581020  RH  029%=      5-min Rain = 0
KLA1 192112Z 32011KT 16/M03 A3028 RMK A01 T01561026  RH  028%=      5-min Rain = 0
KLA1 192113Z 32013KT 16/M02 A3028 RMK A01 T01551024  RH  029%=      5-min Rain = 0
KLA1 192114Z 32010KT 16/M02 A3028 RMK A01 T01551021  RH  030%=      5-min Rain = 0
KLA1 192115Z 32008KT 16/M02 A3028 RMK A01 T01561021  RH  030%=      5-min Rain = 0
KLA1 192116Z 31010G15KT 16/M02 A3028 RMK A01 T01571017  RH  030%=      5-min Rain = 0
KLA1 192117Z 32012KT 16/M02 A3028 RMK A01 T01581020  RH  029%=      5-min Rain = 0
KLA1 192118Z 31012KT 16/M02 A3028 RMK A01 T01581021  RH  029%=      5-min Rain = 0
KLA1 192119Z 31011KT 16/M02 A3028 RMK A01 T01571018  RH  030%=      5-min Rain = 0
KLA1 192120Z 31010KT 16/M02 A3028 RMK A01 T01571017  RH  030%=      5-min Rain = 0
KLA1 192121Z 31011KT 16/M02 A3028 RMK A01 T01571017  RH  030%=      5-min Rain = 0
KLA1 192122Z 32013KT 16/M02 A3028 RMK A01 T01571017  RH  030%=      5-min Rain = 0
KLA1 192123Z 34010KT 16/M02 A3028 RMK A01 T01561023  RH  029%=      5-min Rain = 0
KLA1 192124Z 32010G15KT 16/M02 A3028 RMK A01 T01551021  RH  030%=      5-min Rain = 0
KLA1 192125Z 31011KT 16/M02 A3028 RMK A01 T01551023  RH  029%=      5-min Rain = 0
KLA1 192126Z 31011KT 16/M02 A3028 RMK A01 T01551022  RH  029%=      5-min Rain = 0
KLA1 192127Z 30011G16KT 16/M02 A3028 RMK A01 T01551020  RH  030%=      5-min Rain = 0
KLA1 192128Z 34011KT 16/M02 A3028 RMK A01 T01551021  RH  030%=      5-min Rain = 0
KLA1 192129Z 33012KT 16/M02 A3028 RMK A01 T01571020  RH  030%=      5-min Rain = 0
KLA1 192130Z 33014G19KT 16/M02 A3028 RMK A01 T01571023  RH  029%=      5-min Rain = 0
KLA1 192131Z 31009KT 16/M03 A3028 RMK A01 T01551025  RH  029%=      5-min Rain = 0
KLA1 192132Z 30009KT 16/M02 A3028 RMK A01 T01551023  RH  029%=      5-min Rain = 0
KLA1 192133Z 32007KT 16/M02 A3028 RMK A01 T01551020  RH  030%=      5-min Rain = 0
KLA1 192134Z 32008G13KT 16/M02 A3028 RMK A01 T01551018  RH  030%=      5-min Rain = 0
KLA1 192135Z 31010KT 16/M02 A3028 RMK A01 T01561021  RH  030%=      5-min Rain = 0
KLA1 192136Z 30008KT 16/M01 A3028 RMK A01 T01561014  RH  031%=      5-min Rain = 0
KLA1 192137Z 30008KT 16/M02 A3028 RMK A01 T01571017  RH  030%=      5-min Rain = 0
KLA1 192138Z 30008KT 16/M02 A3028 RMK A01 T01571019  RH  030%=      5-min Rain = 0
KLA1 192139Z 30010KT 16/M02 A3027 RMK A01 T01571015  RH  031%=      5-min Rain = 0
KLA1 192140Z 31010KT 16/M02 A3028 RMK A01 T01581015  RH  031%=      5-min Rain = 0
KLA1 192141Z 30010KT 16/M02 A3028 RMK A01 T01581018  RH  030%=      5-min Rain = 0
KLA1 192142Z 30009KT 16/M02 A3027 RMK A01 T01561022  RH  029%=      5-min Rain = 0
KLA1 192143Z 31013KT 15/M02 A3027 RMK A01 T01541022  RH  030%=      5-min Rain = 0
KLA1 192144Z 32007G12KT 16/M02 A3027 RMK A01 T01551018  RH  031%=      5-min Rain = 0
KLA1 192145Z 31012G17KT 16/M02 A3027 RMK A01 T01581017  RH  030%=      5-min Rain = 0
KLA1 192146Z 32009G14KT 16/M02 A3028 RMK A01 T01581016  RH  030%=      5-min Rain = 0
KLA1 192147Z 30012G17KT 16/M02 A3027 RMK A01 T01581017  RH  030%=      5-min Rain = 0
KLA1 192148Z 30017KT 16/M02 A3027 RMK A01 T01581016  RH  030%=      5-min Rain = 0
KLA1 192149Z 31014KT 16/M02 A3028 RMK A01 T01571018  RH  030%=      5-min Rain = 0
KLA1 192150Z 30009KT 16/M02 A3028 RMK A01 T01561019  RH  030%=      5-min Rain = 0
KLA1 192151Z 31011KT 16/M02 A3027 RMK A01 T01551018  RH  030%=      5-min Rain = 0
KLA1 192152Z 31010KT 16/M02 A3027 RMK A01 T01551019  RH  030%=      5-min Rain = 0
KLA1 192153Z 31009KT 16/M02 A3027 RMK A01 T01551016  RH  031%=      5-min Rain = 0
KLA1 192154Z 32008KT 16/M02 A3027 RMK A01 T01551018  RH  030%=      5-min Rain = 0
KLA1 192155Z 31009G14KT 16/M02 A3027 RMK A01 T01561018  RH  030%=      5-min Rain = 0
KLA1 192156Z 31009KT 16/M02 A3027 RMK A01 T01561019  RH  030%=      5-min Rain = 0
KLA1 192157Z 35008KT 16/M02 A3027 RMK A01 T01561020  RH  030%=      5-min Rain = 0
KLA1 192158Z 33009KT 16/M02 A3027 RMK A01 T01561018  RH  030%=      5-min Rain = 0
KLA1 192159Z 31007KT 16/M02 A3027 RMK A01 T01571021  RH  029%=      5-min Rain = 0
KLA1 192200Z 32009KT 16/M02 A3027 RMK A01 T01571020  RH  030%=      5-min Rain = 0
KLA1 192201Z 33011KT 16/M02 A3027 RMK A01 T01571020  RH  030%=      5-min Rain = 0
KLA1 192202Z 31011KT 16/M02 A3027 RMK A01 T01571018  RH  030%=      5-min Rain = 0
KLA1 192203Z 30010KT 16/M02 A3027 RMK A01 T01571018  RH  030%=      5-min Rain = 0
KLA1 192204Z 30010KT 16/M02 A3027 RMK A01 T01571018  RH  030%=      5-min Rain = 0
KLA1 192205Z 31012KT 16/M02 A3027 RMK A01 T01581018  RH  030%=      5-min Rain = 0
KLA1 192206Z 31010KT 16/M02 A3027 RMK A01 T01571018  RH  030%=      5-min Rain = 0
KLA1 192207Z 31010KT 16/M02 A3027 RMK A01 T01571020  RH  030%=      5-min Rain = 0
KLA1 192208Z 33007KT 16/M02 A3027 RMK A01 T01561019  RH  030%=      5-min Rain = 0
KLA1 192209Z 32009KT 16/M02 A3027 RMK A01 T01571018  RH  030%=      5-min Rain = 0
KLA1 192210Z 32009KT 16/M02 A3026 RMK A01 T01581022  RH  029%=      5-min Rain = 0
KLA1 192211Z 34008G13KT 16/M02 A3026 RMK A01 T01571022  RH  029%=      5-min Rain = 0
KLA1 192212Z 33007G12KT 16/M02 A3026 RMK A01 T01571020  RH  030%=      5-min Rain = 0
KLA1 192213Z 32006KT 16/M02 A3026 RMK A01 T01581017  RH  030%=      5-min Rain = 0
KLA1 192214Z 32008KT 16/M02 A3026 RMK A01 T01591015  RH  030%=      5-min Rain = 0
KLA1 192215Z 34007KT 16/M02 A3026 RMK A01 T01601018  RH  030%=      5-min Rain = 0
KLA1 192216Z 35008KT 16/M02 A3026 RMK A01 T01601021  RH  029%=      5-min Rain = 0
KLA1 192217Z 32008KT 16/M02 A3026 RMK A01 T01591020  RH  029%=      5-min Rain = 0
KLA1 192218Z 34007KT 16/M02 A3026 RMK A01 T01591020  RH  029%=      5-min Rain = 0
KLA1 192219Z 33006KT 16/M02 A3026 RMK A01 T01591018  RH  030%=      5-min Rain = 0
KLA1 192220Z 35007KT 16/M02 A3026 RMK A01 T01601019  RH  029%=      5-min Rain = 0
KLA1 192221Z 33007KT 16/M02 A3026 RMK A01 T01601019  RH  029%=      5-min Rain = 0
KLA1 192222Z 34006KT 16/M02 A3026 RMK A01 T01601019  RH  029%=      5-min Rain = 0
KLA1 192223Z 30010KT 16/M02 A3026 RMK A01 T01601018  RH  029%=      5-min Rain = 0
KLA1 192224Z 30011KT 16/M02 A3026 RMK A01 T01601018  RH  030%=      5-min Rain = 0
KLA1 192225Z 30010KT 16/M02 A3026 RMK A01 T01591019  RH  030%=      5-min Rain = 0
KLA1 192226Z 31011G16KT 16/M02 A3026 RMK A01 T01571018  RH  030%=      5-min Rain = 0
KLA1 192227Z 32012KT 16/M02 A3026 RMK A01 T01581018  RH  030%=      5-min Rain = 0
KLA1 192228Z 31011KT 16/M02 A3026 RMK A01 T01581022  RH  029%=      5-min Rain = 0
KLA1 192229Z 32012KT 16/M02 A3026 RMK A01 T01571023  RH  029%=      5-min Rain = 0
KLA1 192230Z 32010KT 16/M02 A3026 RMK A01 T01561024  RH  029%=      5-min Rain = 0
KLA1 192231Z 31009KT 16/M02 A3026 RMK A01 T01561019  RH  030%=      5-min Rain = 0
KLA1 192232Z 31013KT 16/M02 A3026 RMK A01 T01571017  RH  030%=      5-min Rain = 0
KLA1 192233Z 32010KT 16/M02 A3026 RMK A01 T01581020  RH  029%=      5-min Rain = 0
KLA1 192234Z 30014KT 16/M02 A3026 RMK A01 T01581018  RH  030%=      5-min Rain = 0
KLA1 192235Z 30010KT 16/M02 A3026 RMK A01 T01571020  RH  030%=      5-min Rain = 0
KLA1 192236Z 30010KT 16/M02 A3026 RMK A01 T01561021  RH  030%=      5-min Rain = 0
KLA1 192237Z 29011KT 16/M02 A3026 RMK A01 T01551020  RH  030%=      5-min Rain = 0
KLA1 192238Z 29012KT 16/M02 A3026 RMK A01 T01551019  RH  030%=      5-min Rain = 0
KLA1 192239Z 30011KT 16/M02 A3026 RMK A01 T01551021  RH  030%=      5-min Rain = 0
KLA1 192240Z 30009KT 16/M02 A3026 RMK A01 T01551017  RH  031%=      5-min Rain = 0
KLA1 192241Z 29012KT 16/M02 A3026 RMK A01 T01561016  RH  031%=      5-min Rain = 0
KLA1 192242Z 29013KT 16/M02 A3026 RMK A01 T01561020  RH  030%=      5-min Rain = 0
KLA1 192243Z 30012KT 16/M02 A3026 RMK A01 T01561020  RH  030%=      5-min Rain = 0
KLA1 192244Z 31011KT 16/M02 A3026 RMK A01 T01551018  RH  030%=      5-min Rain = 0
KLA1 192245Z 29010KT 16/M02 A3026 RMK A01 T01551018  RH  030%=      5-min Rain = 0
KLA1 192246Z 30013KT 16/M02 A3026 RMK A01 T01561017  RH  030%=      5-min Rain = 0
KLA1 192247Z 31014KT 16/M02 A3026 RMK A01 T01561018  RH  030%=      5-min Rain = 0
KLA1 192248Z 31012KT 16/M02 A3026 RMK A01 T01561018  RH  030%=      5-min Rain = 0
KLA1 192249Z 31012KT 16/M02 A3026 RMK A01 T01561021  RH  029%=      5-min Rain = 0
KLA1 192250Z 31011KT 16/M02 A3026 RMK A01 T01561021  RH  030%=      5-min Rain = 0
KLA1 192251Z 31010KT 16/M02 A3026 RMK A01 T01561021  RH  030%=      5-min Rain = 0
KLA1 192252Z 32008KT 16/M02 A3026 RMK A01 T01561020  RH  030%=      5-min Rain = 0
KLA1 192253Z 33006KT 16/M02 A3026 RMK A01 T01561021  RH  030%=      5-min Rain = 0
KLA1 192254Z 33006KT 16/M02 A3026 RMK A01 T01561018  RH  030%=      5-min Rain = 0
KLA1 192255Z 33006KT 16/M02 A3026 RMK A01 T01571021  RH  029%=      5-min Rain = 0
KLA1 192256Z 32005KT 16/M02 A3026 RMK A01 T01571017  RH  030%=      5-min Rain = 0
KLA1 192257Z 33008KT 16/M02 A3026 RMK A01 T01581020  RH  030%=      5-min Rain = 0
KLA1 192258Z 30007KT 16/M02 A3026 RMK A01 T01571019  RH  030%=      5-min Rain = 0
KLA1 192259Z 30010KT 16/M02 A3026 RMK A01 T01571016  RH  030%=      5-min Rain = 0
KLA1 192300Z 30013KT 16/M02 A3026 RMK A01 T01571018  RH  030%=      5-min Rain = 0
KLA1 192301Z 30011KT 16/M02 A3026 RMK A01 T01561020  RH  030%=      5-min Rain = 0
KLA1 192302Z 29010KT 15/M02 A3026 RMK A01 T01541021  RH  030%=      5-min Rain = 0
KLA1 192303Z 29012KT 15/M02 A3026 RMK A01 T01531022  RH  030%=      5-min Rain = 0
KLA1 192304Z 29009KT 15/M02 A3026 RMK A01 T01531022  RH  030%=      5-min Rain = 0
KLA1 192305Z 29010KT 15/M02 A3026 RMK A01 T01531020  RH  030%=      5-min Rain = 0
KLA1 192306Z 30011KT 15/M02 A3026 RMK A01 T01531018  RH  031%=      5-min Rain = 0
KLA1 192307Z 30009KT 15/M02 A3026 RMK A01 T01531021  RH  030%=      5-min Rain = 0
KLA1 192308Z 31009KT 15/M02 A3026 RMK A01 T01531022  RH  030%=      5-min Rain = 0
KLA1 192309Z 31009KT 15/M02 A3026 RMK A01 T01531020  RH  030%=      5-min Rain = 0
KLA1 192310Z 31011KT 15/M02 A3026 RMK A01 T01531022  RH  030%=      5-min Rain = 0
KLA1 192311Z 32007KT 15/M02 A3026 RMK A01 T01541021  RH  030%=      5-min Rain = 0
KLA1 192312Z 34006KT 15/M02 A3026 RMK A01 T01541019  RH  030%=      5-min Rain = 0
KLA1 192313Z 33005KT 15/M02 A3026 RMK A01 T01541021  RH  030%=      5-min Rain = 0
KLA1 192314Z 33008KT 15/M02 A3026 RMK A01 T01541023  RH  029%=      5-min Rain = 0
KLA1 192315Z 31008KT 15/M02 A3026 RMK A01 T01541023  RH  030%=      5-min Rain = 0
KLA1 192316Z 32009KT 15/M02 A3026 RMK A01 T01541023  RH  030%=      5-min Rain = 0
KLA1 192317Z 32008KT 15/M02 A3026 RMK A01 T01541023  RH  030%=      5-min Rain = 0
KLA1 192318Z 32008KT 15/M02 A3026 RMK A01 T01541023  RH  030%=      5-min Rain = 0
KLA1 192319Z 32008KT 15/M02 A3026 RMK A01 T01541022  RH  030%=      5-min Rain = 0
KLA1 192320Z 31010KT 15/M02 A3026 RMK A01 T01541021  RH  030%=      5-min Rain = 0
KLA1 192321Z 32010KT 15/M02 A3026 RMK A01 T01541021  RH  030%=      5-min Rain = 0
KLA1 192322Z 31009KT 15/M02 A3026 RMK A01 T01541022  RH  030%=      5-min Rain = 0
KLA1 192323Z 31008KT 15/M02 A3026 RMK A01 T01531020  RH  030%=      5-min Rain = 0
KLA1 192324Z 31007KT 15/M02 A3026 RMK A01 T01531019  RH  031%=      5-min Rain = 0
KLA1 192325Z 30007KT 15/M02 A3026 RMK A01 T01531017  RH  031%=      5-min Rain = 0
KLA1 192326Z 31006KT 15/M01 A3026 RMK A01 T01531013  RH  032%=      5-min Rain = 0
KLA1 192327Z 31009KT 15/M02 A3026 RMK A01 T01531016  RH  031%=      5-min Rain = 0
KLA1 192328Z 31009KT 15/M02 A3026 RMK A01 T01531020  RH  030%=      5-min Rain = 0
KLA1 192329Z 31008KT 15/M02 A3026 RMK A01 T01521019  RH  031%=      5-min Rain = 0
KLA1 192330Z 31007KT 15/M02 A3026 RMK A01 T01511019  RH  031%=      5-min Rain = 0
KLA1 192331Z 31009KT 15/M02 A3026 RMK A01 T01511018  RH  031%=      5-min Rain = 0
KLA1 192332Z 31007KT 15/M02 A3026 RMK A01 T01511017  RH  031%=      5-min Rain = 0
KLA1 192333Z 30009KT 15/M02 A3026 RMK A01 T01501018  RH  031%=      5-min Rain = 0
KLA1 192334Z 30008KT 15/M02 A3026 RMK A01 T01501016  RH  032%=      5-min Rain = 0
KLA1 192335Z 31007KT 15/M02 A3026 RMK A01 T01491016  RH  032%=      5-min Rain = 0
KLA1 192336Z 32005KT 15/M02 A3026 RMK A01 T01491016  RH  032%=      5-min Rain = 0
KLA1 192337Z 32005KT 15/M02 A3026 RMK A01 T01491017  RH  032%=      5-min Rain = 0
KLA1 192338Z 31003KT 15/M02 A3026 RMK A01 T01491017  RH  032%=      5-min Rain = 0
KLA1 192339Z 32005KT 15/M02 A3026 RMK A01 T01491016  RH  032%=      5-min Rain = 0
KLA1 192340Z 32006KT 15/M02 A3026 RMK A01 T01491017  RH  032%=      5-min Rain = 0
KLA1 192341Z 32006KT 15/M02 A3026 RMK A01 T01491018  RH  032%=      5-min Rain = 0
KLA1 192342Z 31007KT 15/M02 A3026 RMK A01 T01491019  RH  031%=      5-min Rain = 0
KLA1 192343Z 31004KT 15/M02 A3026 RMK A01 T01491018  RH  032%=      5-min Rain = 0
KLA1 192344Z 32005KT 15/M02 A3026 RMK A01 T01491015  RH  032%=      5-min Rain = 0
KLA1 192345Z 32006KT 15/M02 A3026 RMK A01 T01491016  RH  032%=      5-min Rain = 0
KLA1 192346Z 31005KT 15/M02 A3026 RMK A01 T01481019  RH  031%=      5-min Rain = 0
KLA1 192347Z 31006KT 15/M02 A3026 RMK A01 T01481022  RH  031%=      5-min Rain = 0
KLA1 192348Z 33003KT 15/M02 A3026 RMK A01 T01481020  RH  031%=      5-min Rain = 0
KLA1 192349Z 32005KT 15/M02 A3026 RMK A01 T01471020  RH  032%=      5-min Rain = 0
KLA1 192350Z 32004KT 15/M02 A3026 RMK A01 T01471020  RH  032%=      5-min Rain = 0
KLA1 192351Z 32004KT 15/M02 A3026 RMK A01 T01461021  RH  032%=      5-min Rain = 0
KLA1 192352Z 32005KT 15/M02 A3026 RMK A01 T01461019  RH  032%=      5-min Rain = 0
KLA1 192353Z 32003KT 15/M02 A3026 RMK A01 T01451020  RH  032%=      5-min Rain = 0
KLA1 192354Z 32005KT 15/M02 A3026 RMK A01 T01451020  RH  032%=      5-min Rain = 0
KLA1 192355Z 32005KT 14/M02 A3026 RMK A01 T01441022  RH  032%=      5-min Rain = 0
KLA1 192356Z 33004KT 14/M02 A3026 RMK A01 T01441022  RH  032%=      5-min Rain = 0
KLA1 192357Z 33003KT 14/M02 A3026 RMK A01 T01441021  RH  032%=      5-min Rain = 0
KLA1 192358Z 33004KT 14/M02 A3026 RMK A01 T01431022  RH  032%=      5-min Rain = 0
KLA1 192359Z 33006KT 14/M02 A3026 RMK A01 T01421023  RH  032%=      5-min Rain = 0
KLA1 200000Z 31008KT 14/M02 A3026 RMK A01 T01421024  RH  032%=      5-min Rain = 0
KLA1 200001Z 32006KT 14/M02 A3027 RMK A01 T01421022  RH  032%=      5-min Rain = 0
KLA1 200002Z 33004KT 14/M02 A3027 RMK A01 T01411023  RH  032%=      5-min Rain = 0
KLA1 200003Z 32005KT 14/M02 A3027 RMK A01 T01411022  RH  032%=      5-min Rain = 0
KLA1 200004Z 33004KT 14/M02 A3027 RMK A01 T01401022  RH  033%=      5-min Rain = 0
KLA1 200005Z 33003KT 14/M02 A3027 RMK A01 T01391023  RH  033%=      5-min Rain = 0
KLA1 200006Z 33005KT 14/M02 A3027 RMK A01 T01391023  RH  033%=      5-min Rain = 0
KLA1 200007Z 33002KT 14/M02 A3027 RMK A01 T01381023  RH  033%=      5-min Rain = 0
KLA1 200008Z 34002KT 14/M02 A3027 RMK A01 T01381022  RH  033%=      5-min Rain = 0
KLA1 200009Z 32002KT 14/M02 A3027 RMK A01 T01371023  RH  033%=      5-min Rain = 0
KLA1 200010Z 33003KT 14/M02 A3027 RMK A01 T01361024  RH  033%=      5-min Rain = 0
KLA1 200011Z 35003KT 14/M02 A3027 RMK A01 T01351024  RH  033%=      5-min Rain = 0
KLA1 200012Z 35004KT 14/M02 A3027 RMK A01 T01351024  RH  033%=      5-min Rain = 0
KLA1 200013Z 35005KT 13/M02 A3027 RMK A01 T01341022  RH  034%=      5-min Rain = 0
KLA1 200014Z 34004KT 13/M02 A3027 RMK A01 T01331023  RH  034%=      5-min Rain = 0
KLA1 200015Z 34004KT 13/M02 A3027 RMK A01 T01331023  RH  034%=      5-min Rain = 0
KLA1 200016Z 34004KT 13/M02 A3027 RMK A01 T01321023  RH  034%=      5-min Rain = 0
KLA1 200017Z 33004KT 13/M02 A3027 RMK A01 T01321024  RH  034%=      5-min Rain = 0
KLA1 200018Z 33003KT 13/M02 A3027 RMK A01 T01321022  RH  034%=      5-min Rain = 0
KLA1 200019Z 32003KT 13/M02 A3027 RMK A01 T01321020  RH  035%=      5-min Rain = 0
KLA1 200020Z 33002KT 13/M02 A3027 RMK A01 T01311017  RH  036%=      5-min Rain = 0
KLA1 200021Z 33002KT 13/M02 A3027 RMK A01 T01291017  RH  036%=      5-min Rain = 0
KLA1 200022Z 32002KT 13/M02 A3027 RMK A01 T01271017  RH  037%=      5-min Rain = 0
KLA1 200023Z 30002KT 13/M02 A3027 RMK A01 T01251017  RH  037%=      5-min Rain = 0
KLA1 200024Z 31002KT 12/M02 A3027 RMK A01 T01231016  RH  038%=      5-min Rain = 0
KLA1 200025Z 31002KT 12/M02 A3027 RMK A01 T01221015  RH  039%=      5-min Rain = 0
KLA1 200026Z 31002KT 12/M02 A3027 RMK A01 T01201015  RH  039%=      5-min Rain = 0
KLA1 200027Z 31002KT 12/M02 A3027 RMK A01 T01201019  RH  038%=      5-min Rain = 0
KLA1 200028Z 32003KT 12/M02 A3027 RMK A01 T01201019  RH  038%=      5-min Rain = 0
KLA1 200029Z 32003KT 12/M02 A3027 RMK A01 T01211019  RH  038%=      5-min Rain = 0
KLA1 200030Z 33003KT 12/M02 A3027 RMK A01 T01221020  RH  037%=      5-min Rain = 0
KLA1 200031Z 34003KT 12/M02 A3027 RMK A01 T01221020  RH  037%=      5-min Rain = 0
KLA1 200032Z 34003KT 12/M02 A3027 RMK A01 T01231021  RH  037%=      5-min Rain = 0
KLA1 200033Z 35003KT 12/M02 A3027 RMK A01 T01231022  RH  036%=      5-min Rain = 0
KLA1 200034Z 35003KT 12/M02 A3027 RMK A01 T01241022  RH  036%=      5-min Rain = 0
KLA1 200035Z 35003KT 12/M02 A3027 RMK A01 T01241020  RH  036%=      5-min Rain = 0
KLA1 200036Z 35003KT 12/M02 A3027 RMK A01 T01241019  RH  037%=      5-min Rain = 0
KLA1 200037Z 36003KT 12/M02 A3027 RMK A01 T01221017  RH  038%=      5-min Rain = 0
KLA1 200038Z 35003KT 12/M02 A3027 RMK A01 T01201016  RH  039%=      5-min Rain = 0
KLA1 200039Z 35003KT 12/M01 A3027 RMK A01 T01181014  RH  040%=      5-min Rain = 0
KLA1 200040Z 01003KT 12/M02 A3027 RMK A01 T01151017  RH  040%=      5-min Rain = 0
KLA1 200041Z 01003KT 12/M02 A3028 RMK A01 T01151017  RH  040%=      5-min Rain = 0
KLA1 200042Z 00003KT 11/M02 A3028 RMK A01 T01141018  RH  040%=      5-min Rain = 0
KLA1 200043Z 00003KT 11/M02 A3028 RMK A01 T01131017  RH  040%=      5-min Rain = 0
KLA1 200044Z 00003KT 11/M02 A3028 RMK A01 T01121017  RH  041%=      5-min Rain = 0
KLA1 200045Z 00003KT 11/M02 A3028 RMK A01 T01111015  RH  041%=      5-min Rain = 0
KLA1 200046Z 00003KT 11/M02 A3028 RMK A01 T01101016  RH  041%=      5-min Rain = 0
KLA1 200047Z 36003KT 11/M02 A3028 RMK A01 T01101018  RH  041%=      5-min Rain = 0
KLA1 200048Z 36003KT 11/M02 A3028 RMK A01 T01101016  RH  041%=      5-min Rain = 0
KLA1 200049Z 00003KT 11/M02 A3028 RMK A01 T01091016  RH  042%=      5-min Rain = 0
KLA1 200050Z 01004KT 11/M02 A3028 RMK A01 T01081018  RH  042%=      5-min Rain = 0
KLA1 200051Z 01004KT 11/M02 A3028 RMK A01 T01081017  RH  042%=      5-min Rain = 0
KLA1 200052Z 01004KT 11/M01 A3028 RMK A01 T01081013  RH  043%=      5-min Rain = 0
KLA1 200053Z 00004KT 11/M01 A3028 RMK A01 T01061013  RH  044%=      5-min Rain = 0
KLA1 200054Z 00004KT 11/M01 A3028 RMK A01 T01051012  RH  044%=      5-min Rain = 0
KLA1 200055Z 01004KT 10/M01 A3028 RMK A01 T01041012  RH  045%=      5-min Rain = 0
KLA1 200056Z 01004KT 10/M01 A3028 RMK A01 T01031012  RH  045%=      5-min Rain = 0
KLA1 200057Z 00004KT 10/M01 A3028 RMK A01 T01021013  RH  045%=      5-min Rain = 0
KLA1 200058Z 00004KT 10/M01 A3028 RMK A01 T01021014  RH  044%=      5-min Rain = 0
KLA1 200059Z 00004KT 10/M02 A3028 RMK A01 T01031016  RH  044%=      5-min Rain = 0
KLA1 200100Z 00004KT 10/M02 A3028 RMK A01 T01041016  RH  043%=      5-min Rain = 0
KLA1 200101Z 00004KT 10/M02 A3028 RMK A01 T01041016  RH  043%=      5-min Rain = 0
KLA1 200102Z 36004KT 11/M02 A3028 RMK A01 T01051015  RH  043%=      5-min Rain = 0
KLA1 200103Z 00004KT 10/M02 A3028 RMK A01 T01041015  RH  043%=      5-min Rain = 0
KLA1 200104Z 00004KT 10/M01 A3028 RMK A01 T01041014  RH  044%=      5-min Rain = 0
KLA1 200105Z 00005KT 10/M01 A3028 RMK A01 T01031013  RH  044%=      5-min Rain = 0
KLA1 200106Z 01005KT 10/M01 A3028 RMK A01 T01031013  RH  044%=      5-min Rain = 0
KLA1 200107Z 00005KT 10/M01 A3028 RMK A01 T01021013  RH  045%=      5-min Rain = 0
KLA1 200108Z 00005KT 10/M01 A3028 RMK A01 T01011013  RH  045%=      5-min Rain = 0
KLA1 200109Z 00006KT 10/M01 A3028 RMK A01 T01001013  RH  045%=      5-min Rain = 0
KLA1 200110Z 00005KT 10/M01 A3028 RMK A01 T01001013  RH  045%=      5-min Rain = 0
KLA1 200111Z 00005KT 10/M01 A3028 RMK A01 T01001014  RH  045%=      5-min Rain = 0
KLA1 200112Z 36004KT 10/M01 A3028 RMK A01 T01011014  RH  045%=      5-min Rain = 0
KLA1 200113Z 35005KT 10/M01 A3028 RMK A01 T01011014  RH  045%=      5-min Rain = 0
KLA1 200114Z 00004KT 10/M02 A3028 RMK A01 T01021015  RH  044%=      5-min Rain = 0
KLA1 200115Z 00005KT 10/M01 A3028 RMK A01 T01021014  RH  044%=      5-min Rain = 0
KLA1 200116Z 01005KT 10/M01 A3028 RMK A01 T01021014  RH  044%=      5-min Rain = 0
KLA1 200117Z 01004KT 10/M01 A3028 RMK A01 T01011014  RH  044%=      5-min Rain = 0
KLA1 200118Z 01004KT 10/M01 A3028 RMK A01 T01011014  RH  045%=      5-min Rain = 0
KLA1 200119Z 00004KT 10/M02 A3028 RMK A01 T01011015  RH  044%=      5-min Rain = 0
KLA1 200120Z 01004KT 10/M02 A3028 RMK A01 T01011015  RH  044%=      5-min Rain = 0
KLA1 200121Z 01004KT 10/M02 A3028 RMK A01 T01011015  RH  045%=      5-min Rain = 0
KLA1 200122Z 01004KT 10/M01 A3028 RMK A01 T01011014  RH  045%=      5-min Rain = 0
KLA1 200123Z 01003KT 10/M02 A3028 RMK A01 T01011015  RH  045%=      5-min Rain = 0
KLA1 200124Z 00003KT 10/M02 A3028 RMK A01 T01001015  RH  045%=      5-min Rain = 0
KLA1 200125Z 00003KT 10/M02 A3028 RMK A01 T01001015  RH  045%=      5-min Rain = 0
KLA1 200126Z 36003KT 10/M02 A3028 RMK A01 T01001016  RH  044%=      5-min Rain = 0
KLA1 200127Z 36004KT 10/M02 A3028 RMK A01 T01001016  RH  044%=      5-min Rain = 0
KLA1 200128Z 35004KT 10/M02 A3029 RMK A01 T01001015  RH  045%=      5-min Rain = 0
KLA1 200129Z 00004KT 10/M02 A3029 RMK A01 T01001015  RH  045%=      5-min Rain = 0
KLA1 200130Z 00004KT 10/M02 A3029 RMK A01 T01001016  RH  044%=      5-min Rain = 0
KLA1 200131Z 36005KT 10/M02 A3029 RMK A01 T01001015  RH  045%=      5-min Rain = 0
KLA1 200132Z 35004KT 10/M02 A3029 RMK A01 T01001015  RH  045%=      5-min Rain = 0
KLA1 200133Z 35003KT 10/M02 A3029 RMK A01 T01001018  RH  044%=      5-min Rain = 0
KLA1 200134Z 30002KT 10/M01 A3029 RMK A01 T01011013  RH  045%=      5-min Rain = 0
KLA1 200135Z 30001KT 10/M01 A3029 RMK A01 T01001011  RH  046%=      5-min Rain = 0
KLA1 200136Z 30001KT 10/M01 A3029 RMK A01 T00991011  RH  046%=      5-min Rain = 0
KLA1 200137Z 29001KT 10/M01 A3029 RMK A01 T00981012  RH  046%=      5-min Rain = 0
KLA1 200138Z 29001KT 10/M01 A3029 RMK A01 T00971014  RH  046%=      5-min Rain = 0
KLA1 200139Z 00000KT 10/M01 A3029 RMK A01 T00961014  RH  046%=      5-min Rain = 0
KLA1 200140Z 24001KT 10/M02 A3029 RMK A01 T00961016  RH  046%=      5-min Rain = 0
KLA1 200141Z 24001KT 10/M02 A3029 RMK A01 T00961016  RH  046%=      5-min Rain = 0
KLA1 200142Z 24001KT 10/M02 A3029 RMK A01 T00961016  RH  045%=      5-min Rain = 0
KLA1 200143Z 24001KT 10/M02 A3029 RMK A01 T00961017  RH  045%=      5-min Rain = 0
KLA1 200144Z 00000KT 10/M02 A3029 RMK A01 T00951017  RH  046%=      5-min Rain = 0
KLA1 200145Z 00000KT 10/M02 A3029 RMK A01 T00951017  RH  046%=      5-min Rain = 0
KLA1 200146Z 00000KT 09/M02 A3029 RMK A01 T00941017  RH  046%=      5-min Rain = 0
KLA1 200147Z 00000KT 09/M01 A3029 RMK A01 T00931014  RH  047%=      5-min Rain = 0
KLA1 200148Z 00000KT 09/M02 A303 RMK A01 T00901015  RH  048%=      5-min Rain = 0
KLA1 200149Z 00000KT 09/M01 A303 RMK A01 T00881012  RH  050%=      5-min Rain = 0
KLA1 200150Z 00000KT 09/M01 A303 RMK A01 T00851011  RH  051%=      5-min Rain = 0
KLA1 200151Z 00000KT 08/M01 A303 RMK A01 T00821011  RH  052%=      5-min Rain = 0
KLA1 200152Z 00000KT 08/M01 A303 RMK A01 T00801011  RH  053%=      5-min Rain = 0
KLA1 200153Z 09001KT 08/M01 A303 RMK A01 T00781009  RH  054%=      5-min Rain = 0
KLA1 200154Z 07001KT 08/M01 A303 RMK A01 T00751006  RH  056%=      5-min Rain = 0
KLA1 200155Z 06002KT 07/M01 A303 RMK A01 T00731006  RH  057%=      5-min Rain = 0
KLA1 200156Z 06002KT 07/M01 A303 RMK A01 T00721008  RH  057%=      5-min Rain = 0
KLA1 200157Z 06002KT 07/M01 A303 RMK A01 T00721010  RH  056%=      5-min Rain = 0
KLA1 200158Z 06002KT 07/M01 A303 RMK A01 T00731009  RH  056%=      5-min Rain = 0
KLA1 200159Z 06002KT 07/M01 A303 RMK A01 T00741009  RH  056%=      5-min Rain = 0
KLA1 200200Z 06002KT 07/M01 A303 RMK A01 T00741009  RH  056%=      5-min Rain = 0
KLA1 200201Z 06002KT 07/M01 A303 RMK A01 T00741009  RH  056%=      5-min Rain = 0
KLA1 200202Z 05002KT 08/M01 A303 RMK A01 T00751008  RH  056%=      5-min Rain = 0
KLA1 200203Z 03003KT 08/M01 A303 RMK A01 T00751009  RH  055%=      5-min Rain = 0
KLA1 200204Z 02003KT 08/M01 A3029 RMK A01 T00761010  RH  055%=      5-min Rain = 0
KLA1 200205Z 02003KT 08/M01 A3029 RMK A01 T00761010  RH  055%=      5-min Rain = 0
KLA1 200206Z 01004KT 08/M01 A3029 RMK A01 T00761009  RH  055%=      5-min Rain = 0
KLA1 200207Z 01004KT 07/M01 A3029 RMK A01 T00741009  RH  055%=      5-min Rain = 0
KLA1 200208Z 01004KT 07/M01 A3029 RMK A01 T00741009  RH  056%=      5-min Rain = 0
KLA1 200209Z 01005KT 07/M01 A3029 RMK A01 T00741009  RH  056%=      5-min Rain = 0
KLA1 200210Z 01005KT 07/M01 A3029 RMK A01 T00741010  RH  055%=      5-min Rain = 0
KLA1 200211Z 01005KT 07/M01 A303 RMK A01 T00741009  RH  055%=      5-min Rain = 0
KLA1 200212Z 01005KT 08/M01 A303 RMK A01 T00751010  RH  055%=      5-min Rain = 0
KLA1 200213Z 00005KT 08/M01 A303 RMK A01 T00771010  RH  054%=      5-min Rain = 0
KLA1 200214Z 00005KT 08/M01 A303 RMK A01 T00771010  RH  054%=      5-min Rain = 0
KLA1 200215Z 36004KT 08/M01 A303 RMK A01 T00781009  RH  054%=      5-min Rain = 0
KLA1 200216Z 27003KT 08/M01 A303 RMK A01 T00791010  RH  053%=      5-min Rain = 0
KLA1 200217Z 28003KT 08/M01 A303 RMK A01 T00801008  RH  054%=      5-min Rain = 0
KLA1 200218Z 29003KT 08/M00 A303 RMK A01 T00781003  RH  056%=      5-min Rain = 0
KLA1 200219Z 29003KT 07/00 A303 RMK A01 T00740000  RH  059%=      5-min Rain = 0
KLA1 200220Z 29003KT 07/00 A303 RMK A01 T00690001  RH  062%=      5-min Rain = 0
KLA1 200221Z 30004KT 07/00 A303 RMK A01 T00650001  RH  063%=      5-min Rain = 0
KLA1 200222Z 32004KT 06/00 A303 RMK A01 T00630002  RH  065%=      5-min Rain = 0
KLA1 200223Z 31002KT 06/00 A303 RMK A01 T00610002  RH  066%=      5-min Rain = 0
KLA1 200224Z 30001KT 06/00 A303 RMK A01 T00610000  RH  065%=      5-min Rain = 0
KLA1 200225Z 30000KT 06/M00 A303 RMK A01 T00601002  RH  064%=      5-min Rain = 0
KLA1 200226Z 00000KT 06/M00 A303 RMK A01 T00601003  RH  064%=      5-min Rain = 0
KLA1 200227Z 00000KT 06/M00 A303 RMK A01 T00611002  RH  064%=      5-min Rain = 0
KLA1 200228Z 08000KT 06/M00 A303 RMK A01 T00611004  RH  063%=      5-min Rain = 0
KLA1 200229Z 07000KT 06/M01 A303 RMK A01 T00601006  RH  063%=      5-min Rain = 0
KLA1 200230Z 03001KT 06/M01 A3031 RMK A01 T00591005  RH  063%=      5-min Rain = 0
KLA1 200231Z 01001KT 06/M00 A3031 RMK A01 T00581004  RH  065%=      5-min Rain = 0
KLA1 200232Z 02002KT 06/M00 A3031 RMK A01 T00571004  RH  065%=      5-min Rain = 0
KLA1 200233Z 02002KT 06/M01 A3031 RMK A01 T00571005  RH  064%=      5-min Rain = 0
KLA1 200234Z 01001KT 06/M01 A3031 RMK A01 T00581007  RH  063%=      5-min Rain = 0
KLA1 200235Z 00000KT 06/M01 A3031 RMK A01 T00591007  RH  063%=      5-min Rain = 0
KLA1 200236Z 00000KT 06/M01 A3031 RMK A01 T00611006  RH  062%=      5-min Rain = 0
KLA1 200237Z 00000KT 06/M01 A3031 RMK A01 T00631006  RH  061%=      5-min Rain = 0
KLA1 200238Z 02001KT 06/M01 A3031 RMK A01 T00631005  RH  062%=      5-min Rain = 0
KLA1 200239Z 02003KT 06/M01 A3031 RMK A01 T00631005  RH  062%=      5-min Rain = 0
KLA1 200240Z 01004KT 06/M01 A3031 RMK A01 T00631007  RH  061%=      5-min Rain = 0
KLA1 200241Z 01004KT 06/M01 A3031 RMK A01 T00631007  RH  061%=      5-min Rain = 0
KLA1 200242Z 01004KT 06/M01 A3031 RMK A01 T00641006  RH  061%=      5-min Rain = 0
KLA1 200243Z 01005KT 06/M01 A3031 RMK A01 T00631007  RH  061%=      5-min Rain = 0
KLA1 200244Z 01005KT 06/M01 A3031 RMK A01 T00631007  RH  061%=      5-min Rain = 0
KLA1 200245Z 01005KT 06/M01 A3031 RMK A01 T00641006  RH  061%=      5-min Rain = 0
KLA1 200246Z 01005KT 07/M01 A3031 RMK A01 T00651006  RH  061%=      5-min Rain = 0
KLA1 200247Z 00004KT 07/M01 A3031 RMK A01 T00651005  RH  061%=      5-min Rain = 0
KLA1 200248Z 00004KT 07/M01 A3031 RMK A01 T00651006  RH  061%=      5-min Rain = 0
KLA1 200249Z 35003KT 07/M01 A303 RMK A01 T00651006  RH  061%=      5-min Rain = 0
KLA1 200250Z 34002KT 07/M01 A303 RMK A01 T00651006  RH  060%=      5-min Rain = 0
KLA1 200251Z 33001KT 07/M01 A303 RMK A01 T00651007  RH  060%=      5-min Rain = 0
KLA1 200252Z 33001KT 07/M01 A303 RMK A01 T00681009  RH  058%=      5-min Rain = 0
KLA1 200253Z 32000KT 07/M01 A3031 RMK A01 T00711010  RH  056%=      5-min Rain = 0
KLA1 200254Z 32001KT 07/M01 A3031 RMK A01 T00731009  RH  056%=      5-min Rain = 0
KLA1 200255Z 29001KT 07/M01 A3031 RMK A01 T00731008  RH  056%=      5-min Rain = 0
KLA1 200256Z 26001KT 07/M01 A3031 RMK A01 T00731006  RH  057%=      5-min Rain = 0
KLA1 200257Z 24001KT 07/M00 A3031 RMK A01 T00721003  RH  059%=      5-min Rain = 0
KLA1 200258Z 22001KT 07/00 A3031 RMK A01 T006900-0  RH  061%=      5-min Rain = 0
KLA1 200259Z 21001KT 06/M00 A3031 RMK A01 T00641004  RH  062%=      5-min Rain = 0
KLA1 200300Z 20001KT 06/M01 A3031 RMK A01 T00621007  RH  061%=      5-min Rain = 0
KLA1 200301Z 27001KT 06/M01 A3031 RMK A01 T00611007  RH  062%=      5-min Rain = 0
KLA1 200302Z 25002KT 06/M01 A3031 RMK A01 T00601007  RH  062%=      5-min Rain = 0
KLA1 200303Z 25003KT 06/M00 A3031 RMK A01 T00601004  RH  063%=      5-min Rain = 0
KLA1 200304Z 24003KT 06/M01 A3031 RMK A01 T00581005  RH  064%=      5-min Rain = 0
KLA1 200305Z 24003KT 05/M00 A3031 RMK A01 T00541004  RH  066%=      5-min Rain = 0
KLA1 200306Z 25002KT 05/M00 A3031 RMK A01 T00521002  RH  068%=      5-min Rain = 0
KLA1 200307Z 26001KT 05/M00 A3031 RMK A01 T00491002  RH  069%=      5-min Rain = 0
KLA1 200308Z 27001KT 05/M00 A3031 RMK A01 T00481001  RH  071%=      5-min Rain = 0
KLA1 200309Z 28001KT 05/00 A3031 RMK A01 T004600-0  RH  072%=      5-min Rain = 0
KLA1 200310Z 28000KT 05/M00 A3031 RMK A01 T00461001  RH  072%=      5-min Rain = 0
KLA1 200311Z 00000KT 05/M00 A3031 RMK A01 T00461001  RH  072%=      5-min Rain = 0
KLA1 200312Z 00000KT 05/M00 A3031 RMK A01 T00451003  RH  071%=      5-min Rain = 0
KLA1 200313Z 00000KT 04/M00 A3031 RMK A01 T00431004  RH  071%=      5-min Rain = 0
KLA1 200314Z 00000KT 04/M00 A3031 RMK A01 T00421004  RH  072%=      5-min Rain = 0
KLA1 200315Z 04001KT 04/M00 A303 RMK A01 T00411004  RH  072%=      5-min Rain = 0
KLA1 200316Z 04002KT 04/M00 A303 RMK A01 T00411004  RH  073%=      5-min Rain = 0
KLA1 200317Z 04001KT 04/M01 A303 RMK A01 T00411005  RH  072%=      5-min Rain = 0
KLA1 200318Z 04001KT 04/M00 A3031 RMK A01 T00421004  RH  072%=      5-min Rain = 0
KLA1 200319Z 04000KT 04/M00 A3031 RMK A01 T00431004  RH  071%=      5-min Rain = 0
KLA1 200320Z 00000KT 04/M01 A3031 RMK A01 T00441005  RH  071%=      5-min Rain = 0
KLA1 200321Z 00000KT 05/M00 A3031 RMK A01 T00451004  RH  071%=      5-min Rain = 0
KLA1 200322Z 05000KT 05/M01 A303 RMK A01 T00451005  RH  070%=      5-min Rain = 0
KLA1 200323Z 04001KT 05/M00 A303 RMK A01 T00471004  RH  069%=      5-min Rain = 0
KLA1 200324Z 05002KT 05/M01 A303 RMK A01 T00501005  RH  068%=      5-min Rain = 0
KLA1 200325Z 04002KT 05/M01 A303 RMK A01 T00521005  RH  067%=      5-min Rain = 0
KLA1 200326Z 04002KT 05/M01 A303 RMK A01 T00521005  RH  066%=      5-min Rain = 0
KLA1 200327Z 03003KT 05/M01 A303 RMK A01 T00511006  RH  067%=      5-min Rain = 0
KLA1 200328Z 02003KT 05/M01 A303 RMK A01 T00511006  RH  067%=      5-min Rain = 0
KLA1 200329Z 01004KT 05/M01 A303 RMK A01 T00501006  RH  067%=      5-min Rain = 0
KLA1 200330Z 01003KT 05/M01 A303 RMK A01 T00491006  RH  067%=      5-min Rain = 0
KLA1 200331Z 02004KT 05/M01 A303 RMK A01 T00511006  RH  067%=      5-min Rain = 0
KLA1 200332Z 02005KT 05/M01 A303 RMK A01 T00541005  RH  066%=      5-min Rain = 0
KLA1 200333Z 02005KT 06/M01 A303 RMK A01 T00561005  RH  065%=      5-min Rain = 0
KLA1 200334Z 03005KT 06/M01 A303 RMK A01 T00571006  RH  064%=      5-min Rain = 0
KLA1 200335Z 03004KT 06/M01 A303 RMK A01 T00571006  RH  064%=      5-min Rain = 0
KLA1 200336Z 03003KT 06/M01 A303 RMK A01 T00571005  RH  064%=      5-min Rain = 0
KLA1 200337Z 03002KT 06/M01 A303 RMK A01 T00561006  RH  065%=      5-min Rain = 0
KLA1 200338Z 02002KT 06/M01 A303 RMK A01 T00551006  RH  065%=      5-min Rain = 0
KLA1 200339Z 02001KT 05/M01 A303 RMK A01 T00531006  RH  066%=      5-min Rain = 0
KLA1 200340Z 02000KT 05/M01 A303 RMK A01 T00501006  RH  067%=      5-min Rain = 0
KLA1 200341Z 00000KT 05/M01 A303 RMK A01 T00491006  RH  067%=      5-min Rain = 0
KLA1 200342Z 00000KT 05/M01 A303 RMK A01 T00481005  RH  068%=      5-min Rain = 0
KLA1 200343Z 29000KT 05/M00 A303 RMK A01 T00471003  RH  070%=      5-min Rain = 0
KLA1 200344Z 30000KT 05/M00 A303 RMK A01 T00451003  RH  071%=      5-min Rain = 0
KLA1 200345Z 27000KT 05/M00 A303 RMK A01 T00451003  RH  071%=      5-min Rain = 0
KLA1 200346Z 28004KT 05/M00 A3031 RMK A01 T00451002  RH  072%=      5-min Rain = 0
KLA1 200347Z 28005KT 04/M00 A3031 RMK A01 T00431002  RH  073%=      5-min Rain = 0
KLA1 200348Z 28004KT 04/M00 A3031 RMK A01 T00391002  RH  074%=      5-min Rain = 0
KLA1 200349Z 27004KT 04/M00 A3031 RMK A01 T00371002  RH  075%=      5-min Rain = 0
KLA1 200350Z 28003KT 04/M00 A3031 RMK A01 T00371003  RH  075%=      5-min Rain = 0
KLA1 200351Z 28001KT 04/M00 A3031 RMK A01 T00371003  RH  075%=      5-min Rain = 0
KLA1 200352Z 28002KT 04/M00 A3031 RMK A01 T00391003  RH  074%=      5-min Rain = 0
KLA1 200353Z 28001KT 04/M00 A3031 RMK A01 T00391002  RH  075%=      5-min Rain = 0
KLA1 200354Z 31001KT 04/00 A3031 RMK A01 T003900-0  RH  075%=      5-min Rain = 0
KLA1 200355Z 31000KT 04/M00 A3031 RMK A01 T00381002  RH  075%=      5-min Rain = 0
KLA1 200356Z 00000KT 04/M00 A3031 RMK A01 T00371003  RH  075%=      5-min Rain = 0
KLA1 200357Z 00000KT 04/M00 A3031 RMK A01 T00371004  RH  075%=      5-min Rain = 0
KLA1 200358Z 19000KT 04/M00 A3031 RMK A01 T00371004  RH  075%=      5-min Rain = 0
KLA1 200359Z 19001KT 04/M00 A3031 RMK A01 T00361004  RH  075%=      5-min Rain = 0
KLA1 200400Z 18003KT 04/M00 A3031 RMK A01 T00351004  RH  075%=      5-min Rain = 0
KLA1 200401Z 18002KT 04/M00 A3031 RMK A01 T00351004  RH  075%=      5-min Rain = 0
KLA1 200402Z 20001KT 04/M00 A3031 RMK A01 T00371004  RH  074%=      5-min Rain = 0
KLA1 200403Z 19000KT 04/M00 A3032 RMK A01 T00391004  RH  073%=      5-min Rain = 0
KLA1 200404Z 00000KT 04/M01 A3032 RMK A01 T00391005  RH  073%=      5-min Rain = 0
KLA1 200405Z 33000KT 04/M01 A3032 RMK A01 T00391005  RH  073%=      5-min Rain = 0
KLA1 200406Z 35001KT 04/M01 A3032 RMK A01 T00441005  RH  071%=      5-min Rain = 0
KLA1 200407Z 01003KT 05/M01 A3031 RMK A01 T00461005  RH  070%=      5-min Rain = 0
KLA1 200408Z 01003KT 04/M01 A3031 RMK A01 T00421006  RH  071%=      5-min Rain = 0
KLA1 200409Z 02003KT 04/M01 A3031 RMK A01 T00371007  RH  073%=      5-min Rain = 0
KLA1 200410Z 01004KT 04/M01 A3031 RMK A01 T00351006  RH  075%=      5-min Rain = 0
KLA1 200411Z 01004KT 03/M01 A3031 RMK A01 T00341006  RH  075%=      5-min Rain = 0
KLA1 200412Z 00005KT 03/M01 A3031 RMK A01 T00331005  RH  076%=      5-min Rain = 0
KLA1 200413Z 00004KT 03/M01 A3031 RMK A01 T00331005  RH  076%=      5-min Rain = 0
KLA1 200414Z 01004KT 03/M00 A3031 RMK A01 T00341004  RH  076%=      5-min Rain = 0
KLA1 200415Z 00004KT 04/M00 A3032 RMK A01 T00351003  RH  076%=      5-min Rain = 0
KLA1 200416Z 00006KT 04/M00 A3032 RMK A01 T00371003  RH  076%=      5-min Rain = 0
KLA1 200417Z 00006KT 04/M00 A3032 RMK A01 T00381003  RH  075%=      5-min Rain = 0
KLA1 200418Z 35005KT 04/M00 A3032 RMK A01 T00411003  RH  073%=      5-min Rain = 0
KLA1 200419Z 35001KT 04/M00 A3032 RMK A01 T00431003  RH  072%=      5-min Rain = 0
KLA1 200420Z 21003KT 05/M00 A3032 RMK A01 T00461004  RH  070%=      5-min Rain = 0
KLA1 200421Z 23003KT 05/M01 A3032 RMK A01 T00451006  RH  070%=      5-min Rain = 0
KLA1 200422Z 27003KT 04/M01 A3032 RMK A01 T00401006  RH  072%=      5-min Rain = 0
KLA1 200423Z 29003KT 04/M01 A3032 RMK A01 T00361006  RH  074%=      5-min Rain = 0
KLA1 200424Z 29004KT 03/M01 A3032 RMK A01 T00321005  RH  076%=      5-min Rain = 0
KLA1 200425Z 30003KT 03/M00 A3032 RMK A01 T00311004  RH  078%=      5-min Rain = 0
KLA1 200426Z 30002KT 03/M00 A3032 RMK A01 T00301003  RH  079%=      5-min Rain = 0
KLA1 200427Z 31002KT 03/M00 A3033 RMK A01 T00291003  RH  079%=      5-min Rain = 0
KLA1 200428Z 34002KT 03/M00 A3033 RMK A01 T00281004  RH  080%=      5-min Rain = 0
KLA1 200429Z 01002KT 03/M01 A3033 RMK A01 T00271005  RH  079%=      5-min Rain = 0
KLA1 200430Z 02003KT 03/M01 A3033 RMK A01 T00261005  RH  080%=      5-min Rain = 0
KLA1 200431Z 03004KT 03/M00 A3033 RMK A01 T00271004  RH  080%=      5-min Rain = 0
KLA1 200432Z 02005KT 03/M00 A3032 RMK A01 T00281004  RH  080%=      5-min Rain = 0
KLA1 200433Z 03004KT 03/M00 A3032 RMK A01 T00301003  RH  079%=      5-min Rain = 0
KLA1 200434Z 02005KT 03/M00 A3032 RMK A01 T00321003  RH  078%=      5-min Rain = 0
KLA1 200435Z 01005KT 03/M00 A3032 RMK A01 T00331002  RH  077%=      5-min Rain = 0
KLA1 200436Z 01006KT 03/M00 A3033 RMK A01 T00341002  RH  077%=      5-min Rain = 0
KLA1 200437Z 01006KT 04/M00 A3033 RMK A01 T00361002  RH  076%=      5-min Rain = 0
KLA1 200438Z 00006KT 04/M00 A3033 RMK A01 T00371002  RH  075%=      5-min Rain = 0
KLA1 200439Z 00006KT 04/M00 A3033 RMK A01 T00401002  RH  074%=      5-min Rain = 0
KLA1 200440Z 01005KT 04/M00 A3033 RMK A01 T00421002  RH  073%=      5-min Rain = 0
KLA1 200441Z 00005KT 04/M00 A3033 RMK A01 T00441003  RH  072%=      5-min Rain = 0
KLA1 200442Z 00004KT 05/M00 A3033 RMK A01 T00471003  RH  070%=      5-min Rain = 0
KLA1 200443Z 00004KT 05/M00 A3033 RMK A01 T00501003  RH  069%=      5-min Rain = 0
KLA1 200444Z 00004KT 05/M00 A3033 RMK A01 T00521003  RH  067%=      5-min Rain = 0
KLA1 200445Z 18005KT 05/M01 A3033 RMK A01 T00511005  RH  067%=      5-min Rain = 0
KLA1 200446Z 18001KT 04/M01 A3033 RMK A01 T00411007  RH  071%=      5-min Rain = 0
KLA1 200447Z 27002KT 04/M00 A3033 RMK A01 T00381004  RH  074%=      5-min Rain = 0
KLA1 200448Z 28004KT 04/M01 A3033 RMK A01 T00381005  RH  074%=      5-min Rain = 0
KLA1 200449Z 27004KT 03/M01 A3034 RMK A01 T00341005  RH  075%=      5-min Rain = 0
KLA1 200450Z 26004KT 03/M01 A3034 RMK A01 T00301006  RH  077%=      5-min Rain = 0
KLA1 200451Z 27004KT 03/M01 A3034 RMK A01 T00271007  RH  079%=      5-min Rain = 0
KLA1 200452Z 27005KT 02/M01 A3034 RMK A01 T00241007  RH  080%=      5-min Rain = 0
KLA1 200453Z 27005KT 02/M01 A3034 RMK A01 T00211008  RH  082%=      5-min Rain = 0
KLA1 200454Z 29005KT 02/M01 A3034 RMK A01 T00191008  RH  083%=      5-min Rain = 0
KLA1 200455Z 29004KT 02/M01 A3034 RMK A01 T00171008  RH  084%=      5-min Rain = 0
KLA1 200456Z 29004KT 02/M01 A3034 RMK A01 T00161008  RH  084%=      5-min Rain = 0
KLA1 200457Z 29002KT 02/M01 A3033 RMK A01 T00161007  RH  085%=      5-min Rain = 0
KLA1 200458Z 31002KT 02/M01 A3033 RMK A01 T00161006  RH  085%=      5-min Rain = 0
KLA1 200459Z 05000KT 02/M01 A3033 RMK A01 T00151007  RH  085%=      5-min Rain = 0
KLA1 200500Z 08000KT 02/M01 A3033 RMK A01 T00151008  RH  085%=      5-min Rain = 0
KLA1 200501Z 00000KT 02/M01 A3033 RMK A01 T00151008  RH  085%=      5-min Rain = 0
KLA1 200502Z 23000KT 02/M01 A3034 RMK A01 T00151008  RH  085%=      5-min Rain = 0
KLA1 200503Z 26002KT 01/M01 A3034 RMK A01 T00141008  RH  085%=      5-min Rain = 0
KLA1 200504Z 24004KT 01/M01 A3034 RMK A01 T00131008  RH  086%=      5-min Rain = 0
KLA1 200505Z 25004KT 01/M01 A3034 RMK A01 T00121009  RH  086%=      5-min Rain = 0
KLA1 200506Z 26004KT 01/M01 A3033 RMK A01 T00111009  RH  086%=      5-min Rain = 0
KLA1 200507Z 29004KT 01/M01 A3034 RMK A01 T00111009  RH  087%=      5-min Rain = 0
KLA1 200508Z 30003KT 01/M01 A3034 RMK A01 T00111008  RH  087%=      5-min Rain = 0
KLA1 200509Z 30003KT 01/M01 A3033 RMK A01 T00111008  RH  087%=      5-min Rain = 0
KLA1 200510Z 31002KT 01/M01 A3032 RMK A01 T00121007  RH  087%=      5-min Rain = 0
KLA1 200511Z 33002KT 01/M01 A3032 RMK A01 T00131007  RH  087%=      5-min Rain = 0
KLA1 200512Z 36002KT 01/M01 A3032 RMK A01 T00131007  RH  086%=      5-min Rain = 0
KLA1 200513Z 36002KT 01/M01 A3032 RMK A01 T00141008  RH  086%=      5-min Rain = 0
KLA1 200514Z 02002KT 01/M01 A3032 RMK A01 T00141008  RH  085%=      5-min Rain = 0
KLA1 200515Z 03003KT 01/M01 A3032 RMK A01 T00141009  RH  085%=      5-min Rain = 0
KLA1 200516Z 03004KT 01/M01 A3032 RMK A01 T00141009  RH  085%=      5-min Rain = 0
KLA1 200517Z 02003KT 01/M01 A3032 RMK A01 T00131009  RH  085%=      5-min Rain = 0
KLA1 200518Z 03003KT 01/M01 A3031 RMK A01 T00131009  RH  086%=      5-min Rain = 0
KLA1 200519Z 02004KT 01/M01 A3032 RMK A01 T00131008  RH  086%=      5-min Rain = 0
KLA1 200520Z 02004KT 01/M01 A3032 RMK A01 T00131007  RH  086%=      5-min Rain = 0
KLA1 200521Z 01004KT 01/M01 A3032 RMK A01 T00131007  RH  087%=      5-min Rain = 0
KLA1 200522Z 01005KT 01/M01 A3032 RMK A01 T00131007  RH  087%=      5-min Rain = 0
KLA1 200523Z 01006KT 01/M01 A3032 RMK A01 T00131007  RH  087%=      5-min Rain = 0
KLA1 200524Z 01006KT 01/M01 A3032 RMK A01 T00131007  RH  087%=      5-min Rain = 0
KLA1 200525Z 01005KT 01/M01 A3032 RMK A01 T00131007  RH  087%=      5-min Rain = 0
KLA1 200526Z 01006KT 01/M01 A3032 RMK A01 T00131006  RH  087%=      5-min Rain = 0
KLA1 200527Z 01006KT 01/M01 A3032 RMK A01 T00131007  RH  087%=      5-min Rain = 0
KLA1 200528Z 01007KT 01/M01 A3032 RMK A01 T00131006  RH  087%=      5-min Rain = 0
KLA1 200529Z 01006KT 01/M01 A3033 RMK A01 T00141005  RH  087%=      5-min Rain = 0
KLA1 200530Z 01006KT 02/M01 A3032 RMK A01 T00151005  RH  087%=      5-min Rain = 0
KLA1 200531Z 01005KT 02/M00 A3032 RMK A01 T00161004  RH  087%=      5-min Rain = 0
KLA1 200532Z 01004KT 02/M00 A3032 RMK A01 T00161004  RH  086%=      5-min Rain = 0
KLA1 200533Z 01004KT 02/M00 A3033 RMK A01 T00171004  RH  086%=      5-min Rain = 0
KLA1 200534Z 36005KT 02/M00 A3033 RMK A01 T00181004  RH  085%=      5-min Rain = 0
KLA1 200535Z 00005KT 02/M00 A3033 RMK A01 T00191004  RH  085%=      5-min Rain = 0
KLA1 200536Z 01003KT 02/M00 A3033 RMK A01 T00201003  RH  085%=      5-min Rain = 0
KLA1 200537Z 35002KT 02/M00 A3033 RMK A01 T00221002  RH  084%=      5-min Rain = 0
KLA1 200538Z 01002KT 03/M00 A3033 RMK A01 T00251002  RH  082%=      5-min Rain = 0
KLA1 200539Z 02002KT 03/M00 A3033 RMK A01 T00281003  RH  080%=      5-min Rain = 0
KLA1 200540Z 01002KT 03/M00 A3033 RMK A01 T00301003  RH  079%=      5-min Rain = 0
KLA1 200541Z 00003KT 03/M00 A3033 RMK A01 T00311004  RH  078%=      5-min Rain = 0
KLA1 200542Z 34003KT 03/M01 A3033 RMK A01 T00301006  RH  078%=      5-min Rain = 0
KLA1 200543Z 31002KT 03/M01 A3033 RMK A01 T00281006  RH  078%=      5-min Rain = 0
KLA1 200544Z 29002KT 03/M01 A3034 RMK A01 T00271006  RH  079%=      5-min Rain = 0
KLA1 200545Z 29001KT 03/M01 A3033 RMK A01 T00271005  RH  079%=      5-min Rain = 0
KLA1 200546Z 29000KT 03/M01 A3033 RMK A01 T00271005  RH  079%=      5-min Rain = 0
KLA1 200547Z 02002KT 03/M01 A3033 RMK A01 T00271006  RH  079%=      5-min Rain = 0
KLA1 200548Z 01004KT 03/M01 A3033 RMK A01 T00251007  RH  079%=      5-min Rain = 0
KLA1 200549Z 01005KT 02/M01 A3033 RMK A01 T00241007  RH  080%=      5-min Rain = 0
KLA1 200550Z 01005KT 02/M01 A3033 RMK A01 T00231006  RH  081%=      5-min Rain = 0
KLA1 200551Z 00005KT 02/M01 A3034 RMK A01 T00231005  RH  082%=      5-min Rain = 0
KLA1 200552Z 00004KT 02/M01 A3034 RMK A01 T00241005  RH  082%=      5-min Rain = 0
KLA1 200553Z 00004KT 03/M00 A3034 RMK A01 T00251003  RH  081%=      5-min Rain = 0
KLA1 200554Z 36003KT 03/M00 A3035 RMK A01 T00281003  RH  080%=      5-min Rain = 0
KLA1 200555Z 33000KT 03/M00 A3034 RMK A01 T00301003  RH  079%=      5-min Rain = 0
KLA1 200556Z 32001KT 03/M00 A3034 RMK A01 T00311004  RH  078%=      5-min Rain = 0
KLA1 200557Z 19001KT 03/M01 A3034 RMK A01 T00311005  RH  077%=      5-min Rain = 0
KLA1 200558Z 16002KT 03/M01 A3034 RMK A01 T00281007  RH  078%=      5-min Rain = 0
KLA1 200559Z 16002KT 03/M01 A3033 RMK A01 T00251009  RH  079%=      5-min Rain = 0

Page generated in 0.1442 seconds.